<?xml version="1.0" encoding="UTF-8" standalone="no" ?>
<gpx xmlns="http://www.topografix.com/GPX/1/1" xmlns:xsi="http://www.w3.org/2001/XMLSchema-instance" xsi:schemaLocation="http://www.topografix.com/GPX/1/1 http://www.topografix.com/GPX/1/1/gpx.xsd" version="1.1" creator="VisuGPX - https://www.visugpx.com">
  <metadata>
    <name>ste foy tarentaise</name>
    <desc><![CDATA[ski alkpinisme endurance]]></desc>
  </metadata>
  <wpt lat="38.85555" lon="-94.79902">
    <ele>3.01</ele>
    <name><![CDATA[GARMIN]]></name>
  </wpt>
  <wpt lat="50.98288" lon="-1.4639">
    <ele>3.01</ele>
    <name><![CDATA[GRMEUR]]></name>
  </wpt>
  <wpt lat="25.06178" lon="121.64027">
    <ele>3.01</ele>
    <name><![CDATA[GRMTWN]]></name>
  </wpt>
  <trk>
    <name><![CDATA[ACTIVE LOG: 26 DEC 2011 10:02]]></name>
    <trkseg>
      <trkpt lat="45.578" lon="6.89437">
        <ele>1348.87</ele>
        <time>2011-12-26T09:02:29Z</time>
      </trkpt>
      <trkpt lat="45.57807" lon="6.89429">
        <ele>1349.83</ele>
        <time>2011-12-26T09:02:40Z</time>
      </trkpt>
      <trkpt lat="45.5781" lon="6.89434">
        <ele>1350.31</ele>
        <time>2011-12-26T09:02:46Z</time>
      </trkpt>
      <trkpt lat="45.57811" lon="6.89432">
        <ele>1352.23</ele>
        <time>2011-12-26T09:03:02Z</time>
      </trkpt>
      <trkpt lat="45.57814" lon="6.89438">
        <ele>1352.23</ele>
        <time>2011-12-26T09:03:07Z</time>
      </trkpt>
      <trkpt lat="45.57819" lon="6.89452">
        <ele>1354.15</ele>
        <time>2011-12-26T09:03:12Z</time>
      </trkpt>
      <trkpt lat="45.57819" lon="6.89461">
        <ele>1357.52</ele>
        <time>2011-12-26T09:03:16Z</time>
      </trkpt>
      <trkpt lat="45.57819" lon="6.89464">
        <ele>1356.56</ele>
        <time>2011-12-26T09:03:17Z</time>
      </trkpt>
      <trkpt lat="45.57817" lon="6.89473">
        <ele>1357.52</ele>
        <time>2011-12-26T09:03:22Z</time>
      </trkpt>
      <trkpt lat="45.57814" lon="6.89477">
        <ele>1358.96</ele>
        <time>2011-12-26T09:03:25Z</time>
      </trkpt>
      <trkpt lat="45.57813" lon="6.89478">
        <ele>1359.44</ele>
        <time>2011-12-26T09:03:26Z</time>
      </trkpt>
      <trkpt lat="45.57806" lon="6.89481">
        <ele>1361.36</ele>
        <time>2011-12-26T09:03:31Z</time>
      </trkpt>
      <trkpt lat="45.57803" lon="6.89482">
        <ele>1362.33</ele>
        <time>2011-12-26T09:03:33Z</time>
      </trkpt>
      <trkpt lat="45.57791" lon="6.89499">
        <ele>1363.77</ele>
        <time>2011-12-26T09:03:46Z</time>
      </trkpt>
      <trkpt lat="45.57791" lon="6.89504">
        <ele>1365.21</ele>
        <time>2011-12-26T09:03:49Z</time>
      </trkpt>
      <trkpt lat="45.57791" lon="6.89512">
        <ele>1367.13</ele>
        <time>2011-12-26T09:03:54Z</time>
      </trkpt>
      <trkpt lat="45.5779" lon="6.8952">
        <ele>1369.05</ele>
        <time>2011-12-26T09:03:59Z</time>
      </trkpt>
      <trkpt lat="45.57779" lon="6.89536">
        <ele>1372.42</ele>
        <time>2011-12-26T09:04:11Z</time>
      </trkpt>
      <trkpt lat="45.5777" lon="6.89543">
        <ele>1375.78</ele>
        <time>2011-12-26T09:04:22Z</time>
      </trkpt>
      <trkpt lat="45.57768" lon="6.89544">
        <ele>1375.3</ele>
        <time>2011-12-26T09:04:23Z</time>
      </trkpt>
      <trkpt lat="45.57766" lon="6.89545">
        <ele>1376.26</ele>
        <time>2011-12-26T09:04:25Z</time>
      </trkpt>
      <trkpt lat="45.57762" lon="6.89549">
        <ele>1377.71</ele>
        <time>2011-12-26T09:04:30Z</time>
      </trkpt>
      <trkpt lat="45.57752" lon="6.89555">
        <ele>1380.59</ele>
        <time>2011-12-26T09:04:40Z</time>
      </trkpt>
      <trkpt lat="45.57745" lon="6.89556">
        <ele>1382.99</ele>
        <time>2011-12-26T09:04:46Z</time>
      </trkpt>
      <trkpt lat="45.57735" lon="6.89558">
        <ele>1386.84</ele>
        <time>2011-12-26T09:04:55Z</time>
      </trkpt>
      <trkpt lat="45.57733" lon="6.89559">
        <ele>1387.32</ele>
        <time>2011-12-26T09:04:57Z</time>
      </trkpt>
      <trkpt lat="45.57724" lon="6.8956">
        <ele>1390.2</ele>
        <time>2011-12-26T09:05:06Z</time>
      </trkpt>
      <trkpt lat="45.57722" lon="6.89562">
        <ele>1391.17</ele>
        <time>2011-12-26T09:05:09Z</time>
      </trkpt>
      <trkpt lat="45.57722" lon="6.89567">
        <ele>1393.09</ele>
        <time>2011-12-26T09:05:13Z</time>
      </trkpt>
      <trkpt lat="45.57722" lon="6.89573">
        <ele>1394.05</ele>
        <time>2011-12-26T09:05:17Z</time>
      </trkpt>
      <trkpt lat="45.57723" lon="6.89582">
        <ele>1397.41</ele>
        <time>2011-12-26T09:05:24Z</time>
      </trkpt>
      <trkpt lat="45.5772" lon="6.89595">
        <ele>1400.3</ele>
        <time>2011-12-26T09:05:34Z</time>
      </trkpt>
      <trkpt lat="45.57715" lon="6.89604">
        <ele>1403.66</ele>
        <time>2011-12-26T09:05:42Z</time>
      </trkpt>
      <trkpt lat="45.57713" lon="6.89606">
        <ele>1405.1</ele>
        <time>2011-12-26T09:05:45Z</time>
      </trkpt>
      <trkpt lat="45.57705" lon="6.89615">
        <ele>1407.99</ele>
        <time>2011-12-26T09:05:54Z</time>
      </trkpt>
      <trkpt lat="45.577" lon="6.89622">
        <ele>1411.83</ele>
        <time>2011-12-26T09:06:02Z</time>
      </trkpt>
      <trkpt lat="45.57699" lon="6.89624">
        <ele>1411.83</ele>
        <time>2011-12-26T09:06:04Z</time>
      </trkpt>
      <trkpt lat="45.57699" lon="6.89633">
        <ele>1413.76</ele>
        <time>2011-12-26T09:06:11Z</time>
      </trkpt>
      <trkpt lat="45.57698" lon="6.89643">
        <ele>1416.64</ele>
        <time>2011-12-26T09:06:19Z</time>
      </trkpt>
      <trkpt lat="45.57689" lon="6.89654">
        <ele>1420</ele>
        <time>2011-12-26T09:06:31Z</time>
      </trkpt>
      <trkpt lat="45.57684" lon="6.89662">
        <ele>1423.85</ele>
        <time>2011-12-26T09:06:39Z</time>
      </trkpt>
      <trkpt lat="45.57687" lon="6.89671">
        <ele>1425.29</ele>
        <time>2011-12-26T09:06:46Z</time>
      </trkpt>
      <trkpt lat="45.57687" lon="6.89671">
        <ele>1426.25</ele>
        <time>2011-12-26T09:06:47Z</time>
      </trkpt>
      <trkpt lat="45.57689" lon="6.89677">
        <ele>1427.7</ele>
        <time>2011-12-26T09:06:52Z</time>
      </trkpt>
      <trkpt lat="45.57693" lon="6.89686">
        <ele>1431.06</ele>
        <time>2011-12-26T09:07:03Z</time>
      </trkpt>
      <trkpt lat="45.57694" lon="6.89695">
        <ele>1433.94</ele>
        <time>2011-12-26T09:07:11Z</time>
      </trkpt>
      <trkpt lat="45.57695" lon="6.89702">
        <ele>1438.27</ele>
        <time>2011-12-26T09:07:19Z</time>
      </trkpt>
      <trkpt lat="45.57696" lon="6.89703">
        <ele>1437.31</ele>
        <time>2011-12-26T09:07:20Z</time>
      </trkpt>
      <trkpt lat="45.57697" lon="6.89703">
        <ele>1437.79</ele>
        <time>2011-12-26T09:07:22Z</time>
      </trkpt>
      <trkpt lat="45.57699" lon="6.89703">
        <ele>1439.23</ele>
        <time>2011-12-26T09:07:24Z</time>
      </trkpt>
      <trkpt lat="45.57706" lon="6.897">
        <ele>1442.6</ele>
        <time>2011-12-26T09:07:33Z</time>
      </trkpt>
      <trkpt lat="45.57715" lon="6.89699">
        <ele>1445.96</ele>
        <time>2011-12-26T09:07:45Z</time>
      </trkpt>
      <trkpt lat="45.57717" lon="6.89699">
        <ele>1446.92</ele>
        <time>2011-12-26T09:07:47Z</time>
      </trkpt>
      <trkpt lat="45.57724" lon="6.897">
        <ele>1450.29</ele>
        <time>2011-12-26T09:07:56Z</time>
      </trkpt>
      <trkpt lat="45.57726" lon="6.89706">
        <ele>1452.69</ele>
        <time>2011-12-26T09:08:04Z</time>
      </trkpt>
      <trkpt lat="45.57731" lon="6.89718">
        <ele>1456.05</ele>
        <time>2011-12-26T09:08:15Z</time>
      </trkpt>
      <trkpt lat="45.57738" lon="6.89716">
        <ele>1459.42</ele>
        <time>2011-12-26T09:08:25Z</time>
      </trkpt>
      <trkpt lat="45.57742" lon="6.89713">
        <ele>1462.78</ele>
        <time>2011-12-26T09:08:31Z</time>
      </trkpt>
      <trkpt lat="45.57743" lon="6.89712">
        <ele>1462.3</ele>
        <time>2011-12-26T09:08:32Z</time>
      </trkpt>
      <trkpt lat="45.57751" lon="6.89709">
        <ele>1466.15</ele>
        <time>2011-12-26T09:08:41Z</time>
      </trkpt>
      <trkpt lat="45.57751" lon="6.89709">
        <ele>1465.67</ele>
        <time>2011-12-26T09:08:42Z</time>
      </trkpt>
      <trkpt lat="45.57754" lon="6.8971">
        <ele>1467.11</ele>
        <time>2011-12-26T09:08:46Z</time>
      </trkpt>
      <trkpt lat="45.57755" lon="6.89713">
        <ele>1468.07</ele>
        <time>2011-12-26T09:08:50Z</time>
      </trkpt>
      <trkpt lat="45.57757" lon="6.89722">
        <ele>1471.44</ele>
        <time>2011-12-26T09:08:59Z</time>
      </trkpt>
      <trkpt lat="45.57762" lon="6.89723">
        <ele>1474.8</ele>
        <time>2011-12-26T09:09:05Z</time>
      </trkpt>
      <trkpt lat="45.57765" lon="6.8972">
        <ele>1472.88</ele>
        <time>2011-12-26T09:09:08Z</time>
      </trkpt>
      <trkpt lat="45.57766" lon="6.89717">
        <ele>1478.16</ele>
        <time>2011-12-26T09:09:10Z</time>
      </trkpt>
      <trkpt lat="45.57767" lon="6.89716">
        <ele>1474.8</ele>
        <time>2011-12-26T09:09:11Z</time>
      </trkpt>
      <trkpt lat="45.57771" lon="6.89715">
        <ele>1478.65</ele>
        <time>2011-12-26T09:09:15Z</time>
      </trkpt>
      <trkpt lat="45.57772" lon="6.89715">
        <ele>1477.68</ele>
        <time>2011-12-26T09:09:16Z</time>
      </trkpt>
      <trkpt lat="45.57774" lon="6.89715">
        <ele>1479.13</ele>
        <time>2011-12-26T09:09:18Z</time>
      </trkpt>
      <trkpt lat="45.57778" lon="6.89717">
        <ele>1483.93</ele>
        <time>2011-12-26T09:09:21Z</time>
      </trkpt>
      <trkpt lat="45.57779" lon="6.89718">
        <ele>1480.09</ele>
        <time>2011-12-26T09:09:22Z</time>
      </trkpt>
      <trkpt lat="45.57785" lon="6.8973">
        <ele>1482.49</ele>
        <time>2011-12-26T09:09:31Z</time>
      </trkpt>
      <trkpt lat="45.57793" lon="6.89734">
        <ele>1486.34</ele>
        <time>2011-12-26T09:09:42Z</time>
      </trkpt>
      <trkpt lat="45.57802" lon="6.89738">
        <ele>1489.7</ele>
        <time>2011-12-26T09:09:56Z</time>
      </trkpt>
      <trkpt lat="45.57805" lon="6.8974">
        <ele>1491.14</ele>
        <time>2011-12-26T09:10:00Z</time>
      </trkpt>
      <trkpt lat="45.57812" lon="6.89753">
        <ele>1493.55</ele>
        <time>2011-12-26T09:10:11Z</time>
      </trkpt>
      <trkpt lat="45.57819" lon="6.89761">
        <ele>1496.91</ele>
        <time>2011-12-26T09:10:19Z</time>
      </trkpt>
      <trkpt lat="45.57825" lon="6.89758">
        <ele>1500.76</ele>
        <time>2011-12-26T09:10:30Z</time>
      </trkpt>
      <trkpt lat="45.57831" lon="6.89765">
        <ele>1503.64</ele>
        <time>2011-12-26T09:10:40Z</time>
      </trkpt>
      <trkpt lat="45.57834" lon="6.89771">
        <ele>1505.08</ele>
        <time>2011-12-26T09:10:45Z</time>
      </trkpt>
      <trkpt lat="45.57835" lon="6.89771">
        <ele>1506.52</ele>
        <time>2011-12-26T09:10:46Z</time>
      </trkpt>
      <trkpt lat="45.57838" lon="6.89786">
        <ele>1508.45</ele>
        <time>2011-12-26T09:10:56Z</time>
      </trkpt>
      <trkpt lat="45.57838" lon="6.89792">
        <ele>1509.89</ele>
        <time>2011-12-26T09:11:01Z</time>
      </trkpt>
      <trkpt lat="45.5784" lon="6.89796">
        <ele>1511.81</ele>
        <time>2011-12-26T09:11:05Z</time>
      </trkpt>
      <trkpt lat="45.57848" lon="6.89798">
        <ele>1515.66</ele>
        <time>2011-12-26T09:11:15Z</time>
      </trkpt>
      <trkpt lat="45.57856" lon="6.89802">
        <ele>1519.02</ele>
        <time>2011-12-26T09:11:26Z</time>
      </trkpt>
      <trkpt lat="45.57863" lon="6.89808">
        <ele>1520.94</ele>
        <time>2011-12-26T09:11:37Z</time>
      </trkpt>
      <trkpt lat="45.57863" lon="6.89816">
        <ele>1523.35</ele>
        <time>2011-12-26T09:11:43Z</time>
      </trkpt>
      <trkpt lat="45.57864" lon="6.89829">
        <ele>1526.71</ele>
        <time>2011-12-26T09:11:53Z</time>
      </trkpt>
      <trkpt lat="45.57865" lon="6.89831">
        <ele>1527.67</ele>
        <time>2011-12-26T09:11:55Z</time>
      </trkpt>
      <trkpt lat="45.57872" lon="6.8984">
        <ele>1531.04</ele>
        <time>2011-12-26T09:12:05Z</time>
      </trkpt>
      <trkpt lat="45.57873" lon="6.8984">
        <ele>1531.04</ele>
        <time>2011-12-26T09:12:06Z</time>
      </trkpt>
      <trkpt lat="45.57882" lon="6.89838">
        <ele>1534.4</ele>
        <time>2011-12-26T09:12:18Z</time>
      </trkpt>
      <trkpt lat="45.57889" lon="6.8984">
        <ele>1537.77</ele>
        <time>2011-12-26T09:12:27Z</time>
      </trkpt>
      <trkpt lat="45.57891" lon="6.89841">
        <ele>1538.25</ele>
        <time>2011-12-26T09:12:29Z</time>
      </trkpt>
      <trkpt lat="45.57897" lon="6.89849">
        <ele>1540.17</ele>
        <time>2011-12-26T09:12:35Z</time>
      </trkpt>
      <trkpt lat="45.57898" lon="6.89851">
        <ele>1541.13</ele>
        <time>2011-12-26T09:12:37Z</time>
      </trkpt>
      <trkpt lat="45.57906" lon="6.89856">
        <ele>1543.05</ele>
        <time>2011-12-26T09:12:45Z</time>
      </trkpt>
      <trkpt lat="45.5791" lon="6.89865">
        <ele>1546.9</ele>
        <time>2011-12-26T09:12:52Z</time>
      </trkpt>
      <trkpt lat="45.57913" lon="6.89868">
        <ele>1546.42</ele>
        <time>2011-12-26T09:12:56Z</time>
      </trkpt>
      <trkpt lat="45.57915" lon="6.89871">
        <ele>1547.86</ele>
        <time>2011-12-26T09:13:00Z</time>
      </trkpt>
      <trkpt lat="45.57915" lon="6.8988">
        <ele>1548.82</ele>
        <time>2011-12-26T09:13:06Z</time>
      </trkpt>
      <trkpt lat="45.57912" lon="6.89885">
        <ele>1550.26</ele>
        <time>2011-12-26T09:13:10Z</time>
      </trkpt>
      <trkpt lat="45.57906" lon="6.89899">
        <ele>1553.63</ele>
        <time>2011-12-26T09:13:22Z</time>
      </trkpt>
      <trkpt lat="45.57909" lon="6.89903">
        <ele>1557.47</ele>
        <time>2011-12-26T09:13:28Z</time>
      </trkpt>
      <trkpt lat="45.57909" lon="6.89906">
        <ele>1556.99</ele>
        <time>2011-12-26T09:13:31Z</time>
      </trkpt>
      <trkpt lat="45.57907" lon="6.8991">
        <ele>1557.47</ele>
        <time>2011-12-26T09:13:35Z</time>
      </trkpt>
      <trkpt lat="45.57899" lon="6.89922">
        <ele>1561.8</ele>
        <time>2011-12-26T09:13:49Z</time>
      </trkpt>
      <trkpt lat="45.57899" lon="6.89923">
        <ele>1562.28</ele>
        <time>2011-12-26T09:13:50Z</time>
      </trkpt>
      <trkpt lat="45.57904" lon="6.89937">
        <ele>1566.12</ele>
        <time>2011-12-26T09:14:01Z</time>
      </trkpt>
      <trkpt lat="45.57904" lon="6.89938">
        <ele>1564.68</ele>
        <time>2011-12-26T09:14:02Z</time>
      </trkpt>
      <trkpt lat="45.57898" lon="6.89952">
        <ele>1569.01</ele>
        <time>2011-12-26T09:14:15Z</time>
      </trkpt>
      <trkpt lat="45.57894" lon="6.89962">
        <ele>1572.85</ele>
        <time>2011-12-26T09:14:25Z</time>
      </trkpt>
      <trkpt lat="45.5789" lon="6.89977">
        <ele>1577.18</ele>
        <time>2011-12-26T09:14:38Z</time>
      </trkpt>
      <trkpt lat="45.57891" lon="6.89978">
        <ele>1576.7</ele>
        <time>2011-12-26T09:14:39Z</time>
      </trkpt>
      <trkpt lat="45.57891" lon="6.89979">
        <ele>1576.22</ele>
        <time>2011-12-26T09:14:40Z</time>
      </trkpt>
      <trkpt lat="45.57897" lon="6.89987">
        <ele>1580.54</ele>
        <time>2011-12-26T09:14:50Z</time>
      </trkpt>
      <trkpt lat="45.57893" lon="6.90002">
        <ele>1583.91</ele>
        <time>2011-12-26T09:15:04Z</time>
      </trkpt>
      <trkpt lat="45.57893" lon="6.90009">
        <ele>1586.79</ele>
        <time>2011-12-26T09:15:11Z</time>
      </trkpt>
      <trkpt lat="45.57898" lon="6.90015">
        <ele>1588.72</ele>
        <time>2011-12-26T09:15:18Z</time>
      </trkpt>
      <trkpt lat="45.579" lon="6.90017">
        <ele>1590.16</ele>
        <time>2011-12-26T09:15:21Z</time>
      </trkpt>
      <trkpt lat="45.57903" lon="6.90028">
        <ele>1593.04</ele>
        <time>2011-12-26T09:15:32Z</time>
      </trkpt>
      <trkpt lat="45.57902" lon="6.90035">
        <ele>1593.52</ele>
        <time>2011-12-26T09:15:37Z</time>
      </trkpt>
      <trkpt lat="45.5789" lon="6.9005">
        <ele>1596.41</ele>
        <time>2011-12-26T09:15:51Z</time>
      </trkpt>
      <trkpt lat="45.57887" lon="6.90054">
        <ele>1597.85</ele>
        <time>2011-12-26T09:15:55Z</time>
      </trkpt>
      <trkpt lat="45.57883" lon="6.90063">
        <ele>1601.21</ele>
        <time>2011-12-26T09:16:04Z</time>
      </trkpt>
      <trkpt lat="45.57886" lon="6.90068">
        <ele>1602.66</ele>
        <time>2011-12-26T09:16:11Z</time>
      </trkpt>
      <trkpt lat="45.57894" lon="6.90082">
        <ele>1606.98</ele>
        <time>2011-12-26T09:16:25Z</time>
      </trkpt>
      <trkpt lat="45.57896" lon="6.90089">
        <ele>1608.42</ele>
        <time>2011-12-26T09:16:31Z</time>
      </trkpt>
      <trkpt lat="45.57896" lon="6.90095">
        <ele>1608.9</ele>
        <time>2011-12-26T09:16:36Z</time>
      </trkpt>
      <trkpt lat="45.57888" lon="6.90104">
        <ele>1612.27</ele>
        <time>2011-12-26T09:16:46Z</time>
      </trkpt>
      <trkpt lat="45.5788" lon="6.90114">
        <ele>1615.15</ele>
        <time>2011-12-26T09:16:57Z</time>
      </trkpt>
      <trkpt lat="45.57878" lon="6.90118">
        <ele>1617.07</ele>
        <time>2011-12-26T09:17:02Z</time>
      </trkpt>
      <trkpt lat="45.57879" lon="6.90125">
        <ele>1619.48</ele>
        <time>2011-12-26T09:17:08Z</time>
      </trkpt>
      <trkpt lat="45.57881" lon="6.90134">
        <ele>1620.92</ele>
        <time>2011-12-26T09:17:15Z</time>
      </trkpt>
      <trkpt lat="45.57876" lon="6.90148">
        <ele>1624.28</ele>
        <time>2011-12-26T09:17:26Z</time>
      </trkpt>
      <trkpt lat="45.57872" lon="6.90153">
        <ele>1625.73</ele>
        <time>2011-12-26T09:17:31Z</time>
      </trkpt>
      <trkpt lat="45.57868" lon="6.90163">
        <ele>1628.61</ele>
        <time>2011-12-26T09:17:39Z</time>
      </trkpt>
      <trkpt lat="45.57868" lon="6.90175">
        <ele>1631.98</ele>
        <time>2011-12-26T09:17:49Z</time>
      </trkpt>
      <trkpt lat="45.57865" lon="6.90182">
        <ele>1634.86</ele>
        <time>2011-12-26T09:17:54Z</time>
      </trkpt>
      <trkpt lat="45.57866" lon="6.90187">
        <ele>1635.34</ele>
        <time>2011-12-26T09:17:58Z</time>
      </trkpt>
      <trkpt lat="45.57867" lon="6.90189">
        <ele>1635.34</ele>
        <time>2011-12-26T09:18:00Z</time>
      </trkpt>
      <trkpt lat="45.57873" lon="6.90194">
        <ele>1638.22</ele>
        <time>2011-12-26T09:18:06Z</time>
      </trkpt>
      <trkpt lat="45.57877" lon="6.90197">
        <ele>1639.19</ele>
        <time>2011-12-26T09:18:10Z</time>
      </trkpt>
      <trkpt lat="45.57877" lon="6.90198">
        <ele>1641.11</ele>
        <time>2011-12-26T09:18:11Z</time>
      </trkpt>
      <trkpt lat="45.57873" lon="6.90212">
        <ele>1643.51</ele>
        <time>2011-12-26T09:18:22Z</time>
      </trkpt>
      <trkpt lat="45.57873" lon="6.90215">
        <ele>1644.47</ele>
        <time>2011-12-26T09:18:25Z</time>
      </trkpt>
      <trkpt lat="45.57881" lon="6.9022">
        <ele>1648.32</ele>
        <time>2011-12-26T09:18:34Z</time>
      </trkpt>
      <trkpt lat="45.57901" lon="6.90221">
        <ele>1650.72</ele>
        <time>2011-12-26T09:18:49Z</time>
      </trkpt>
      <trkpt lat="45.57912" lon="6.9022">
        <ele>1653.6</ele>
        <time>2011-12-26T09:18:59Z</time>
      </trkpt>
      <trkpt lat="45.57923" lon="6.90222">
        <ele>1656.49</ele>
        <time>2011-12-26T09:19:09Z</time>
      </trkpt>
      <trkpt lat="45.57925" lon="6.90223">
        <ele>1657.45</ele>
        <time>2011-12-26T09:19:12Z</time>
      </trkpt>
      <trkpt lat="45.57927" lon="6.90225">
        <ele>1657.93</ele>
        <time>2011-12-26T09:19:14Z</time>
      </trkpt>
      <trkpt lat="45.57932" lon="6.90234">
        <ele>1660.81</ele>
        <time>2011-12-26T09:19:21Z</time>
      </trkpt>
      <trkpt lat="45.57936" lon="6.90241">
        <ele>1662.74</ele>
        <time>2011-12-26T09:19:27Z</time>
      </trkpt>
      <trkpt lat="45.57931" lon="6.9027">
        <ele>1664.18</ele>
        <time>2011-12-26T09:19:40Z</time>
      </trkpt>
      <trkpt lat="45.5793" lon="6.90272">
        <ele>1664.18</ele>
        <time>2011-12-26T09:19:41Z</time>
      </trkpt>
      <trkpt lat="45.57929" lon="6.90274">
        <ele>1664.18</ele>
        <time>2011-12-26T09:19:42Z</time>
      </trkpt>
      <trkpt lat="45.57927" lon="6.90286">
        <ele>1665.62</ele>
        <time>2011-12-26T09:19:49Z</time>
      </trkpt>
      <trkpt lat="45.57926" lon="6.90299">
        <ele>1667.06</ele>
        <time>2011-12-26T09:19:57Z</time>
      </trkpt>
      <trkpt lat="45.57917" lon="6.90304">
        <ele>1670.91</ele>
        <time>2011-12-26T09:20:06Z</time>
      </trkpt>
      <trkpt lat="45.57916" lon="6.90306">
        <ele>1670.91</ele>
        <time>2011-12-26T09:20:09Z</time>
      </trkpt>
      <trkpt lat="45.57921" lon="6.90315">
        <ele>1673.31</ele>
        <time>2011-12-26T09:20:17Z</time>
      </trkpt>
      <trkpt lat="45.57923" lon="6.90336">
        <ele>1675.23</ele>
        <time>2011-12-26T09:20:30Z</time>
      </trkpt>
      <trkpt lat="45.57909" lon="6.90359">
        <ele>1678.12</ele>
        <time>2011-12-26T09:20:44Z</time>
      </trkpt>
      <trkpt lat="45.57907" lon="6.9036">
        <ele>1678.6</ele>
        <time>2011-12-26T09:20:45Z</time>
      </trkpt>
      <trkpt lat="45.57893" lon="6.90365">
        <ele>1681</ele>
        <time>2011-12-26T09:20:56Z</time>
      </trkpt>
      <trkpt lat="45.57882" lon="6.9037">
        <ele>1683.41</ele>
        <time>2011-12-26T09:21:05Z</time>
      </trkpt>
      <trkpt lat="45.57868" lon="6.90372">
        <ele>1685.81</ele>
        <time>2011-12-26T09:21:18Z</time>
      </trkpt>
      <trkpt lat="45.57857" lon="6.90382">
        <ele>1689.17</ele>
        <time>2011-12-26T09:21:31Z</time>
      </trkpt>
      <trkpt lat="45.57845" lon="6.90391">
        <ele>1691.1</ele>
        <time>2011-12-26T09:21:44Z</time>
      </trkpt>
      <trkpt lat="45.57839" lon="6.90395">
        <ele>1693.02</ele>
        <time>2011-12-26T09:21:51Z</time>
      </trkpt>
      <trkpt lat="45.57828" lon="6.90397">
        <ele>1695.9</ele>
        <time>2011-12-26T09:22:02Z</time>
      </trkpt>
      <trkpt lat="45.5782" lon="6.904">
        <ele>1697.34</ele>
        <time>2011-12-26T09:22:10Z</time>
      </trkpt>
      <trkpt lat="45.57808" lon="6.90399">
        <ele>1700.71</ele>
        <time>2011-12-26T09:22:20Z</time>
      </trkpt>
      <trkpt lat="45.57794" lon="6.90397">
        <ele>1704.55</ele>
        <time>2011-12-26T09:22:34Z</time>
      </trkpt>
      <trkpt lat="45.5779" lon="6.90395">
        <ele>1705.52</ele>
        <time>2011-12-26T09:22:38Z</time>
      </trkpt>
      <trkpt lat="45.57776" lon="6.90392">
        <ele>1708.4</ele>
        <time>2011-12-26T09:22:52Z</time>
      </trkpt>
      <trkpt lat="45.57773" lon="6.90397">
        <ele>1711.28</ele>
        <time>2011-12-26T09:23:03Z</time>
      </trkpt>
      <trkpt lat="45.57779" lon="6.90398">
        <ele>1713.21</ele>
        <time>2011-12-26T09:23:10Z</time>
      </trkpt>
      <trkpt lat="45.57785" lon="6.90401">
        <ele>1716.57</ele>
        <time>2011-12-26T09:23:19Z</time>
      </trkpt>
      <trkpt lat="45.57791" lon="6.90413">
        <ele>1718.97</ele>
        <time>2011-12-26T09:23:33Z</time>
      </trkpt>
      <trkpt lat="45.57793" lon="6.90414">
        <ele>1719.94</ele>
        <time>2011-12-26T09:23:35Z</time>
      </trkpt>
      <trkpt lat="45.57799" lon="6.90425">
        <ele>1722.82</ele>
        <time>2011-12-26T09:23:46Z</time>
      </trkpt>
      <trkpt lat="45.57803" lon="6.90434">
        <ele>1723.78</ele>
        <time>2011-12-26T09:23:53Z</time>
      </trkpt>
      <trkpt lat="45.57807" lon="6.90444">
        <ele>1725.7</ele>
        <time>2011-12-26T09:24:02Z</time>
      </trkpt>
      <trkpt lat="45.57808" lon="6.90448">
        <ele>1726.18</ele>
        <time>2011-12-26T09:24:05Z</time>
      </trkpt>
      <trkpt lat="45.57817" lon="6.90465">
        <ele>1728.59</ele>
        <time>2011-12-26T09:24:19Z</time>
      </trkpt>
      <trkpt lat="45.57826" lon="6.90483">
        <ele>1731.47</ele>
        <time>2011-12-26T09:24:33Z</time>
      </trkpt>
      <trkpt lat="45.57831" lon="6.90497">
        <ele>1734.84</ele>
        <time>2011-12-26T09:24:46Z</time>
      </trkpt>
      <trkpt lat="45.57838" lon="6.90511">
        <ele>1737.72</ele>
        <time>2011-12-26T09:24:59Z</time>
      </trkpt>
      <trkpt lat="45.57843" lon="6.90519">
        <ele>1740.6</ele>
        <time>2011-12-26T09:25:09Z</time>
      </trkpt>
      <trkpt lat="45.57849" lon="6.90531">
        <ele>1743.49</ele>
        <time>2011-12-26T09:25:22Z</time>
      </trkpt>
      <trkpt lat="45.57845" lon="6.90543">
        <ele>1746.85</ele>
        <time>2011-12-26T09:25:35Z</time>
      </trkpt>
      <trkpt lat="45.57848" lon="6.90554">
        <ele>1750.22</ele>
        <time>2011-12-26T09:25:47Z</time>
      </trkpt>
      <trkpt lat="45.5785" lon="6.90557">
        <ele>1750.7</ele>
        <time>2011-12-26T09:25:51Z</time>
      </trkpt>
      <trkpt lat="45.57856" lon="6.90568">
        <ele>1753.1</ele>
        <time>2011-12-26T09:26:03Z</time>
      </trkpt>
      <trkpt lat="45.57861" lon="6.90577">
        <ele>1755.99</ele>
        <time>2011-12-26T09:26:12Z</time>
      </trkpt>
      <trkpt lat="45.57865" lon="6.90587">
        <ele>1758.39</ele>
        <time>2011-12-26T09:26:22Z</time>
      </trkpt>
      <trkpt lat="45.57864" lon="6.90589">
        <ele>1758.39</ele>
        <time>2011-12-26T09:26:24Z</time>
      </trkpt>
      <trkpt lat="45.57855" lon="6.90596">
        <ele>1761.75</ele>
        <time>2011-12-26T09:26:33Z</time>
      </trkpt>
      <trkpt lat="45.57855" lon="6.90598">
        <ele>1762.71</ele>
        <time>2011-12-26T09:26:35Z</time>
      </trkpt>
      <trkpt lat="45.57859" lon="6.90605">
        <ele>1764.16</ele>
        <time>2011-12-26T09:26:42Z</time>
      </trkpt>
      <trkpt lat="45.57864" lon="6.90616">
        <ele>1767.04</ele>
        <time>2011-12-26T09:26:53Z</time>
      </trkpt>
      <trkpt lat="45.57865" lon="6.90619">
        <ele>1766.56</ele>
        <time>2011-12-26T09:26:56Z</time>
      </trkpt>
      <trkpt lat="45.57863" lon="6.90624">
        <ele>1768.96</ele>
        <time>2011-12-26T09:27:02Z</time>
      </trkpt>
      <trkpt lat="45.57863" lon="6.90628">
        <ele>1770.41</ele>
        <time>2011-12-26T09:27:06Z</time>
      </trkpt>
      <trkpt lat="45.57867" lon="6.90642">
        <ele>1772.33</ele>
        <time>2011-12-26T09:27:19Z</time>
      </trkpt>
      <trkpt lat="45.57867" lon="6.90645">
        <ele>1772.81</ele>
        <time>2011-12-26T09:27:22Z</time>
      </trkpt>
      <trkpt lat="45.57869" lon="6.90655">
        <ele>1776.17</ele>
        <time>2011-12-26T09:27:31Z</time>
      </trkpt>
      <trkpt lat="45.57869" lon="6.90656">
        <ele>1776.17</ele>
        <time>2011-12-26T09:27:32Z</time>
      </trkpt>
      <trkpt lat="45.57873" lon="6.90666">
        <ele>1778.58</ele>
        <time>2011-12-26T09:27:45Z</time>
      </trkpt>
      <trkpt lat="45.57874" lon="6.90667">
        <ele>1779.54</ele>
        <time>2011-12-26T09:27:47Z</time>
      </trkpt>
      <trkpt lat="45.57882" lon="6.90683">
        <ele>1781.94</ele>
        <time>2011-12-26T09:28:01Z</time>
      </trkpt>
      <trkpt lat="45.57886" lon="6.90696">
        <ele>1785.31</ele>
        <time>2011-12-26T09:28:12Z</time>
      </trkpt>
      <trkpt lat="45.57887" lon="6.90697">
        <ele>1785.79</ele>
        <time>2011-12-26T09:28:13Z</time>
      </trkpt>
      <trkpt lat="45.57889" lon="6.90702">
        <ele>1787.71</ele>
        <time>2011-12-26T09:28:18Z</time>
      </trkpt>
      <trkpt lat="45.5789" lon="6.90721">
        <ele>1790.11</ele>
        <time>2011-12-26T09:28:31Z</time>
      </trkpt>
      <trkpt lat="45.57882" lon="6.90733">
        <ele>1793</ele>
        <time>2011-12-26T09:28:43Z</time>
      </trkpt>
      <trkpt lat="45.57881" lon="6.90735">
        <ele>1793</ele>
        <time>2011-12-26T09:28:46Z</time>
      </trkpt>
      <trkpt lat="45.57894" lon="6.90738">
        <ele>1795.88</ele>
        <time>2011-12-26T09:29:02Z</time>
      </trkpt>
      <trkpt lat="45.57909" lon="6.90737">
        <ele>1798.76</ele>
        <time>2011-12-26T09:29:15Z</time>
      </trkpt>
      <trkpt lat="45.57923" lon="6.90745">
        <ele>1801.17</ele>
        <time>2011-12-26T09:29:28Z</time>
      </trkpt>
      <trkpt lat="45.57939" lon="6.90753">
        <ele>1803.09</ele>
        <time>2011-12-26T09:29:42Z</time>
      </trkpt>
      <trkpt lat="45.57957" lon="6.90762">
        <ele>1805.49</ele>
        <time>2011-12-26T09:30:00Z</time>
      </trkpt>
      <trkpt lat="45.57965" lon="6.90773">
        <ele>1808.38</ele>
        <time>2011-12-26T09:30:11Z</time>
      </trkpt>
      <trkpt lat="45.57972" lon="6.90784">
        <ele>1811.74</ele>
        <time>2011-12-26T09:30:23Z</time>
      </trkpt>
      <trkpt lat="45.57972" lon="6.90789">
        <ele>1812.7</ele>
        <time>2011-12-26T09:30:27Z</time>
      </trkpt>
      <trkpt lat="45.5797" lon="6.90798">
        <ele>1815.11</ele>
        <time>2011-12-26T09:30:34Z</time>
      </trkpt>
      <trkpt lat="45.57969" lon="6.90811">
        <ele>1818.47</ele>
        <time>2011-12-26T09:30:47Z</time>
      </trkpt>
      <trkpt lat="45.57978" lon="6.9082">
        <ele>1821.84</ele>
        <time>2011-12-26T09:31:02Z</time>
      </trkpt>
      <trkpt lat="45.57985" lon="6.90829">
        <ele>1825.2</ele>
        <time>2011-12-26T09:31:15Z</time>
      </trkpt>
      <trkpt lat="45.57994" lon="6.90841">
        <ele>1828.56</ele>
        <time>2011-12-26T09:31:30Z</time>
      </trkpt>
      <trkpt lat="45.57994" lon="6.90842">
        <ele>1829.05</ele>
        <time>2011-12-26T09:31:31Z</time>
      </trkpt>
      <trkpt lat="45.57996" lon="6.90846">
        <ele>1829.05</ele>
        <time>2011-12-26T09:31:34Z</time>
      </trkpt>
      <trkpt lat="45.57997" lon="6.90848">
        <ele>1830.01</ele>
        <time>2011-12-26T09:31:36Z</time>
      </trkpt>
      <trkpt lat="45.57996" lon="6.90854">
        <ele>1830.97</ele>
        <time>2011-12-26T09:31:40Z</time>
      </trkpt>
      <trkpt lat="45.5799" lon="6.90869">
        <ele>1834.33</ele>
        <time>2011-12-26T09:31:55Z</time>
      </trkpt>
      <trkpt lat="45.57989" lon="6.90873">
        <ele>1834.81</ele>
        <time>2011-12-26T09:32:00Z</time>
      </trkpt>
      <trkpt lat="45.57994" lon="6.90886">
        <ele>1838.66</ele>
        <time>2011-12-26T09:32:13Z</time>
      </trkpt>
      <trkpt lat="45.58" lon="6.90899">
        <ele>1842.02</ele>
        <time>2011-12-26T09:32:26Z</time>
      </trkpt>
      <trkpt lat="45.58003" lon="6.90904">
        <ele>1842.98</ele>
        <time>2011-12-26T09:32:31Z</time>
      </trkpt>
      <trkpt lat="45.58003" lon="6.90907">
        <ele>1842.98</ele>
        <time>2011-12-26T09:32:34Z</time>
      </trkpt>
      <trkpt lat="45.57995" lon="6.90917">
        <ele>1845.87</ele>
        <time>2011-12-26T09:32:46Z</time>
      </trkpt>
      <trkpt lat="45.57987" lon="6.90927">
        <ele>1849.23</ele>
        <time>2011-12-26T09:32:58Z</time>
      </trkpt>
      <trkpt lat="45.57988" lon="6.90938">
        <ele>1852.12</ele>
        <time>2011-12-26T09:33:11Z</time>
      </trkpt>
      <trkpt lat="45.5799" lon="6.90944">
        <ele>1854.04</ele>
        <time>2011-12-26T09:33:17Z</time>
      </trkpt>
      <trkpt lat="45.57994" lon="6.90954">
        <ele>1856.44</ele>
        <time>2011-12-26T09:33:26Z</time>
      </trkpt>
      <trkpt lat="45.58" lon="6.90968">
        <ele>1859.33</ele>
        <time>2011-12-26T09:33:38Z</time>
      </trkpt>
      <trkpt lat="45.57988" lon="6.90979">
        <ele>1861.73</ele>
        <time>2011-12-26T09:33:52Z</time>
      </trkpt>
      <trkpt lat="45.57985" lon="6.90987">
        <ele>1864.61</ele>
        <time>2011-12-26T09:34:02Z</time>
      </trkpt>
      <trkpt lat="45.57991" lon="6.90998">
        <ele>1867.5</ele>
        <time>2011-12-26T09:34:13Z</time>
      </trkpt>
      <trkpt lat="45.57997" lon="6.91011">
        <ele>1869.9</ele>
        <time>2011-12-26T09:34:26Z</time>
      </trkpt>
      <trkpt lat="45.58001" lon="6.91021">
        <ele>1871.82</ele>
        <time>2011-12-26T09:34:35Z</time>
      </trkpt>
      <trkpt lat="45.58001" lon="6.91024">
        <ele>1872.3</ele>
        <time>2011-12-26T09:34:37Z</time>
      </trkpt>
      <trkpt lat="45.57988" lon="6.91036">
        <ele>1875.67</ele>
        <time>2011-12-26T09:34:51Z</time>
      </trkpt>
      <trkpt lat="45.57983" lon="6.91046">
        <ele>1878.55</ele>
        <time>2011-12-26T09:35:01Z</time>
      </trkpt>
      <trkpt lat="45.57983" lon="6.91046">
        <ele>1878.55</ele>
        <time>2011-12-26T09:35:02Z</time>
      </trkpt>
      <trkpt lat="45.57989" lon="6.91062">
        <ele>1882.88</ele>
        <time>2011-12-26T09:35:17Z</time>
      </trkpt>
      <trkpt lat="45.57994" lon="6.91078">
        <ele>1884.8</ele>
        <time>2011-12-26T09:35:31Z</time>
      </trkpt>
      <trkpt lat="45.57995" lon="6.91081">
        <ele>1885.76</ele>
        <time>2011-12-26T09:35:34Z</time>
      </trkpt>
      <trkpt lat="45.57988" lon="6.91096">
        <ele>1888.65</ele>
        <time>2011-12-26T09:35:47Z</time>
      </trkpt>
      <trkpt lat="45.57979" lon="6.91111">
        <ele>1892.49</ele>
        <time>2011-12-26T09:36:00Z</time>
      </trkpt>
      <trkpt lat="45.57978" lon="6.91119">
        <ele>1892.97</ele>
        <time>2011-12-26T09:36:08Z</time>
      </trkpt>
      <trkpt lat="45.57987" lon="6.91135">
        <ele>1896.82</ele>
        <time>2011-12-26T09:36:23Z</time>
      </trkpt>
      <trkpt lat="45.57995" lon="6.91148">
        <ele>1899.7</ele>
        <time>2011-12-26T09:36:36Z</time>
      </trkpt>
      <trkpt lat="45.58003" lon="6.91158">
        <ele>1902.59</ele>
        <time>2011-12-26T09:36:48Z</time>
      </trkpt>
      <trkpt lat="45.58" lon="6.91166">
        <ele>1905.47</ele>
        <time>2011-12-26T09:36:56Z</time>
      </trkpt>
      <trkpt lat="45.5799" lon="6.91177">
        <ele>1907.87</ele>
        <time>2011-12-26T09:37:08Z</time>
      </trkpt>
      <trkpt lat="45.57989" lon="6.91179">
        <ele>1909.32</ele>
        <time>2011-12-26T09:37:11Z</time>
      </trkpt>
      <trkpt lat="45.57989" lon="6.91181">
        <ele>1909.32</ele>
        <time>2011-12-26T09:37:13Z</time>
      </trkpt>
      <trkpt lat="45.58" lon="6.91189">
        <ele>1912.68</ele>
        <time>2011-12-26T09:37:26Z</time>
      </trkpt>
      <trkpt lat="45.58002" lon="6.91191">
        <ele>1913.16</ele>
        <time>2011-12-26T09:37:29Z</time>
      </trkpt>
      <trkpt lat="45.58003" lon="6.91193">
        <ele>1915.08</ele>
        <time>2011-12-26T09:37:32Z</time>
      </trkpt>
      <trkpt lat="45.5801" lon="6.91201">
        <ele>1917.49</ele>
        <time>2011-12-26T09:37:43Z</time>
      </trkpt>
      <trkpt lat="45.58012" lon="6.91205">
        <ele>1918.93</ele>
        <time>2011-12-26T09:37:48Z</time>
      </trkpt>
      <trkpt lat="45.58016" lon="6.9121">
        <ele>1920.37</ele>
        <time>2011-12-26T09:38:03Z</time>
      </trkpt>
      <trkpt lat="45.58018" lon="6.91213">
        <ele>1920.37</ele>
        <time>2011-12-26T09:38:06Z</time>
      </trkpt>
      <trkpt lat="45.58017" lon="6.9122">
        <ele>1922.29</ele>
        <time>2011-12-26T09:38:12Z</time>
      </trkpt>
      <trkpt lat="45.58012" lon="6.91227">
        <ele>1924.22</ele>
        <time>2011-12-26T09:38:19Z</time>
      </trkpt>
      <trkpt lat="45.5801" lon="6.91231">
        <ele>1924.7</ele>
        <time>2011-12-26T09:38:24Z</time>
      </trkpt>
      <trkpt lat="45.58009" lon="6.91234">
        <ele>1926.14</ele>
        <time>2011-12-26T09:38:27Z</time>
      </trkpt>
      <trkpt lat="45.58009" lon="6.91236">
        <ele>1926.62</ele>
        <time>2011-12-26T09:38:29Z</time>
      </trkpt>
      <trkpt lat="45.58017" lon="6.91246">
        <ele>1929.5</ele>
        <time>2011-12-26T09:38:41Z</time>
      </trkpt>
      <trkpt lat="45.58024" lon="6.91256">
        <ele>1932.39</ele>
        <time>2011-12-26T09:38:54Z</time>
      </trkpt>
      <trkpt lat="45.58019" lon="6.91269">
        <ele>1936.23</ele>
        <time>2011-12-26T09:39:07Z</time>
      </trkpt>
      <trkpt lat="45.58019" lon="6.91274">
        <ele>1937.19</ele>
        <time>2011-12-26T09:39:12Z</time>
      </trkpt>
      <trkpt lat="45.58027" lon="6.91285">
        <ele>1940.56</ele>
        <time>2011-12-26T09:39:24Z</time>
      </trkpt>
      <trkpt lat="45.58029" lon="6.91289">
        <ele>1941.52</ele>
        <time>2011-12-26T09:39:28Z</time>
      </trkpt>
      <trkpt lat="45.58024" lon="6.91303">
        <ele>1944.88</ele>
        <time>2011-12-26T09:39:40Z</time>
      </trkpt>
      <trkpt lat="45.58023" lon="6.91315">
        <ele>1947.29</ele>
        <time>2011-12-26T09:39:51Z</time>
      </trkpt>
      <trkpt lat="45.58034" lon="6.91326">
        <ele>1950.65</ele>
        <time>2011-12-26T09:40:06Z</time>
      </trkpt>
      <trkpt lat="45.58044" lon="6.91337">
        <ele>1953.54</ele>
        <time>2011-12-26T09:40:18Z</time>
      </trkpt>
      <trkpt lat="45.5805" lon="6.91347">
        <ele>1957.38</ele>
        <time>2011-12-26T09:40:28Z</time>
      </trkpt>
      <trkpt lat="45.58057" lon="6.91361">
        <ele>1959.3</ele>
        <time>2011-12-26T09:40:41Z</time>
      </trkpt>
      <trkpt lat="45.58062" lon="6.91374">
        <ele>1962.67</ele>
        <time>2011-12-26T09:40:52Z</time>
      </trkpt>
      <trkpt lat="45.58064" lon="6.91383">
        <ele>1963.15</ele>
        <time>2011-12-26T09:40:59Z</time>
      </trkpt>
      <trkpt lat="45.58068" lon="6.91394">
        <ele>1966.51</ele>
        <time>2011-12-26T09:41:08Z</time>
      </trkpt>
      <trkpt lat="45.58069" lon="6.91406">
        <ele>1969.4</ele>
        <time>2011-12-26T09:41:19Z</time>
      </trkpt>
      <trkpt lat="45.5806" lon="6.91419">
        <ele>1972.76</ele>
        <time>2011-12-26T09:41:31Z</time>
      </trkpt>
      <trkpt lat="45.58061" lon="6.91427">
        <ele>1975.17</ele>
        <time>2011-12-26T09:41:38Z</time>
      </trkpt>
      <trkpt lat="45.58064" lon="6.91433">
        <ele>1977.57</ele>
        <time>2011-12-26T09:41:43Z</time>
      </trkpt>
      <trkpt lat="45.58065" lon="6.91435">
        <ele>1977.09</ele>
        <time>2011-12-26T09:41:45Z</time>
      </trkpt>
      <trkpt lat="45.5807" lon="6.91449">
        <ele>1980.93</ele>
        <time>2011-12-26T09:41:57Z</time>
      </trkpt>
      <trkpt lat="45.58072" lon="6.9146">
        <ele>1983.34</ele>
        <time>2011-12-26T09:42:07Z</time>
      </trkpt>
      <trkpt lat="45.58072" lon="6.91463">
        <ele>1983.82</ele>
        <time>2011-12-26T09:42:09Z</time>
      </trkpt>
      <trkpt lat="45.5807" lon="6.91472">
        <ele>1985.26</ele>
        <time>2011-12-26T09:42:16Z</time>
      </trkpt>
      <trkpt lat="45.58076" lon="6.91497">
        <ele>1986.22</ele>
        <time>2011-12-26T09:42:31Z</time>
      </trkpt>
      <trkpt lat="45.5808" lon="6.91521">
        <ele>1986.7</ele>
        <time>2011-12-26T09:42:44Z</time>
      </trkpt>
      <trkpt lat="45.58085" lon="6.91545">
        <ele>1986.7</ele>
        <time>2011-12-26T09:42:58Z</time>
      </trkpt>
      <trkpt lat="45.58095" lon="6.91565">
        <ele>1988.62</ele>
        <time>2011-12-26T09:43:12Z</time>
      </trkpt>
      <trkpt lat="45.58099" lon="6.91587">
        <ele>1989.59</ele>
        <time>2011-12-26T09:43:25Z</time>
      </trkpt>
      <trkpt lat="45.58107" lon="6.91617">
        <ele>1990.07</ele>
        <time>2011-12-26T09:43:39Z</time>
      </trkpt>
      <trkpt lat="45.5811" lon="6.91626">
        <ele>1991.03</ele>
        <time>2011-12-26T09:43:49Z</time>
      </trkpt>
      <trkpt lat="45.58114" lon="6.91638">
        <ele>1993.43</ele>
        <time>2011-12-26T09:44:00Z</time>
      </trkpt>
      <trkpt lat="45.58113" lon="6.91647">
        <ele>1996.32</ele>
        <time>2011-12-26T09:44:11Z</time>
      </trkpt>
      <trkpt lat="45.58113" lon="6.91648">
        <ele>1995.83</ele>
        <time>2011-12-26T09:44:14Z</time>
      </trkpt>
      <trkpt lat="45.58102" lon="6.91644">
        <ele>1997.76</ele>
        <time>2011-12-26T09:44:24Z</time>
      </trkpt>
      <trkpt lat="45.5809" lon="6.91636">
        <ele>2001.6</ele>
        <time>2011-12-26T09:44:37Z</time>
      </trkpt>
      <trkpt lat="45.58085" lon="6.91631">
        <ele>2002.56</ele>
        <time>2011-12-26T09:44:43Z</time>
      </trkpt>
      <trkpt lat="45.58082" lon="6.91626">
        <ele>2002.56</ele>
        <time>2011-12-26T09:44:47Z</time>
      </trkpt>
      <trkpt lat="45.58078" lon="6.91622">
        <ele>2004.01</ele>
        <time>2011-12-26T09:44:51Z</time>
      </trkpt>
      <trkpt lat="45.58065" lon="6.91612">
        <ele>2006.89</ele>
        <time>2011-12-26T09:45:04Z</time>
      </trkpt>
      <trkpt lat="45.5806" lon="6.91609">
        <ele>2007.85</ele>
        <time>2011-12-26T09:45:09Z</time>
      </trkpt>
      <trkpt lat="45.5805" lon="6.91604">
        <ele>2011.22</ele>
        <time>2011-12-26T09:45:19Z</time>
      </trkpt>
      <trkpt lat="45.58048" lon="6.91601">
        <ele>2011.22</ele>
        <time>2011-12-26T09:45:32Z</time>
      </trkpt>
      <trkpt lat="45.58049" lon="6.91601">
        <ele>2012.18</ele>
        <time>2011-12-26T09:45:52Z</time>
      </trkpt>
      <trkpt lat="45.58047" lon="6.916">
        <ele>2014.1</ele>
        <time>2011-12-26T09:46:07Z</time>
      </trkpt>
      <trkpt lat="45.58033" lon="6.916">
        <ele>2017.46</ele>
        <time>2011-12-26T09:46:20Z</time>
      </trkpt>
      <trkpt lat="45.5803" lon="6.91602">
        <ele>2019.39</ele>
        <time>2011-12-26T09:46:31Z</time>
      </trkpt>
      <trkpt lat="45.5803" lon="6.91602">
        <ele>2019.39</ele>
        <time>2011-12-26T09:46:33Z</time>
      </trkpt>
      <trkpt lat="45.58033" lon="6.91615">
        <ele>2022.75</ele>
        <time>2011-12-26T09:46:45Z</time>
      </trkpt>
      <trkpt lat="45.58036" lon="6.91626">
        <ele>2025.15</ele>
        <time>2011-12-26T09:46:56Z</time>
      </trkpt>
      <trkpt lat="45.58034" lon="6.91628">
        <ele>2025.64</ele>
        <time>2011-12-26T09:46:59Z</time>
      </trkpt>
      <trkpt lat="45.58028" lon="6.91632">
        <ele>2027.56</ele>
        <time>2011-12-26T09:47:04Z</time>
      </trkpt>
      <trkpt lat="45.58025" lon="6.91639">
        <ele>2029</ele>
        <time>2011-12-26T09:47:15Z</time>
      </trkpt>
      <trkpt lat="45.58026" lon="6.9164">
        <ele>2029.96</ele>
        <time>2011-12-26T09:47:19Z</time>
      </trkpt>
      <trkpt lat="45.58026" lon="6.91645">
        <ele>2032.36</ele>
        <time>2011-12-26T09:47:24Z</time>
      </trkpt>
      <trkpt lat="45.58026" lon="6.91652">
        <ele>2032.84</ele>
        <time>2011-12-26T09:47:32Z</time>
      </trkpt>
      <trkpt lat="45.58022" lon="6.91654">
        <ele>2034.29</ele>
        <time>2011-12-26T09:47:36Z</time>
      </trkpt>
      <trkpt lat="45.58019" lon="6.91663">
        <ele>2037.17</ele>
        <time>2011-12-26T09:47:47Z</time>
      </trkpt>
      <trkpt lat="45.58016" lon="6.91669">
        <ele>2039.09</ele>
        <time>2011-12-26T09:47:55Z</time>
      </trkpt>
      <trkpt lat="45.5801" lon="6.91672">
        <ele>2041.5</ele>
        <time>2011-12-26T09:48:02Z</time>
      </trkpt>
      <trkpt lat="45.58007" lon="6.91673">
        <ele>2042.94</ele>
        <time>2011-12-26T09:48:07Z</time>
      </trkpt>
      <trkpt lat="45.58006" lon="6.91675">
        <ele>2044.38</ele>
        <time>2011-12-26T09:48:10Z</time>
      </trkpt>
      <trkpt lat="45.58006" lon="6.91678">
        <ele>2045.34</ele>
        <time>2011-12-26T09:48:14Z</time>
      </trkpt>
      <trkpt lat="45.58005" lon="6.91689">
        <ele>2047.75</ele>
        <time>2011-12-26T09:48:26Z</time>
      </trkpt>
      <trkpt lat="45.58005" lon="6.91689">
        <ele>2048.71</ele>
        <time>2011-12-26T09:48:27Z</time>
      </trkpt>
      <trkpt lat="45.58003" lon="6.91692">
        <ele>2048.23</ele>
        <time>2011-12-26T09:48:30Z</time>
      </trkpt>
      <trkpt lat="45.57995" lon="6.91694">
        <ele>2051.59</ele>
        <time>2011-12-26T09:48:39Z</time>
      </trkpt>
      <trkpt lat="45.57986" lon="6.917">
        <ele>2054.47</ele>
        <time>2011-12-26T09:48:50Z</time>
      </trkpt>
      <trkpt lat="45.57985" lon="6.91701">
        <ele>2055.44</ele>
        <time>2011-12-26T09:48:51Z</time>
      </trkpt>
      <trkpt lat="45.57985" lon="6.91703">
        <ele>2055.92</ele>
        <time>2011-12-26T09:48:54Z</time>
      </trkpt>
      <trkpt lat="45.57981" lon="6.91707">
        <ele>2057.36</ele>
        <time>2011-12-26T09:49:01Z</time>
      </trkpt>
      <trkpt lat="45.57974" lon="6.91712">
        <ele>2059.76</ele>
        <time>2011-12-26T09:49:13Z</time>
      </trkpt>
      <trkpt lat="45.57972" lon="6.91713">
        <ele>2062.17</ele>
        <time>2011-12-26T09:49:17Z</time>
      </trkpt>
      <trkpt lat="45.57971" lon="6.91722">
        <ele>2065.05</ele>
        <time>2011-12-26T09:49:29Z</time>
      </trkpt>
      <trkpt lat="45.57971" lon="6.91723">
        <ele>2065.05</ele>
        <time>2011-12-26T09:49:31Z</time>
      </trkpt>
      <trkpt lat="45.57971" lon="6.91733">
        <ele>2069.38</ele>
        <time>2011-12-26T09:49:43Z</time>
      </trkpt>
      <trkpt lat="45.5797" lon="6.91742">
        <ele>2070.82</ele>
        <time>2011-12-26T09:49:54Z</time>
      </trkpt>
      <trkpt lat="45.5797" lon="6.91743">
        <ele>2071.78</ele>
        <time>2011-12-26T09:49:55Z</time>
      </trkpt>
      <trkpt lat="45.57961" lon="6.91744">
        <ele>2074.18</ele>
        <time>2011-12-26T09:50:06Z</time>
      </trkpt>
      <trkpt lat="45.57956" lon="6.91745">
        <ele>2075.62</ele>
        <time>2011-12-26T09:50:11Z</time>
      </trkpt>
      <trkpt lat="45.57945" lon="6.91747">
        <ele>2078.99</ele>
        <time>2011-12-26T09:50:23Z</time>
      </trkpt>
      <trkpt lat="45.57936" lon="6.9175">
        <ele>2082.35</ele>
        <time>2011-12-26T09:50:32Z</time>
      </trkpt>
      <trkpt lat="45.57935" lon="6.91755">
        <ele>2082.83</ele>
        <time>2011-12-26T09:50:39Z</time>
      </trkpt>
      <trkpt lat="45.57936" lon="6.9176">
        <ele>2085.72</ele>
        <time>2011-12-26T09:50:45Z</time>
      </trkpt>
      <trkpt lat="45.57938" lon="6.91772">
        <ele>2088.12</ele>
        <time>2011-12-26T09:50:57Z</time>
      </trkpt>
      <trkpt lat="45.57938" lon="6.91781">
        <ele>2090.04</ele>
        <time>2011-12-26T09:51:05Z</time>
      </trkpt>
      <trkpt lat="45.57929" lon="6.91784">
        <ele>2091.49</ele>
        <time>2011-12-26T09:51:19Z</time>
      </trkpt>
      <trkpt lat="45.57928" lon="6.91785">
        <ele>2092.93</ele>
        <time>2011-12-26T09:51:29Z</time>
      </trkpt>
      <trkpt lat="45.57916" lon="6.91788">
        <ele>2095.33</ele>
        <time>2011-12-26T09:51:40Z</time>
      </trkpt>
      <trkpt lat="45.5791" lon="6.91797">
        <ele>2098.21</ele>
        <time>2011-12-26T09:51:50Z</time>
      </trkpt>
      <trkpt lat="45.57912" lon="6.91802">
        <ele>2099.66</ele>
        <time>2011-12-26T09:51:54Z</time>
      </trkpt>
      <trkpt lat="45.57908" lon="6.91812">
        <ele>2103.5</ele>
        <time>2011-12-26T09:52:06Z</time>
      </trkpt>
      <trkpt lat="45.5791" lon="6.91819">
        <ele>2106.39</ele>
        <time>2011-12-26T09:52:16Z</time>
      </trkpt>
      <trkpt lat="45.57912" lon="6.91828">
        <ele>2109.27</ele>
        <time>2011-12-26T09:52:26Z</time>
      </trkpt>
      <trkpt lat="45.57905" lon="6.91835">
        <ele>2112.15</ele>
        <time>2011-12-26T09:52:38Z</time>
      </trkpt>
      <trkpt lat="45.579" lon="6.91843">
        <ele>2116</ele>
        <time>2011-12-26T09:52:51Z</time>
      </trkpt>
      <trkpt lat="45.57899" lon="6.91843">
        <ele>2116</ele>
        <time>2011-12-26T09:52:52Z</time>
      </trkpt>
      <trkpt lat="45.57895" lon="6.91847">
        <ele>2117.44</ele>
        <time>2011-12-26T09:53:00Z</time>
      </trkpt>
      <trkpt lat="45.57895" lon="6.91854">
        <ele>2119.36</ele>
        <time>2011-12-26T09:53:11Z</time>
      </trkpt>
      <trkpt lat="45.57898" lon="6.91861">
        <ele>2122.73</ele>
        <time>2011-12-26T09:53:20Z</time>
      </trkpt>
      <trkpt lat="45.579" lon="6.91871">
        <ele>2124.65</ele>
        <time>2011-12-26T09:53:32Z</time>
      </trkpt>
      <trkpt lat="45.57901" lon="6.91875">
        <ele>2127.53</ele>
        <time>2011-12-26T09:53:37Z</time>
      </trkpt>
      <trkpt lat="45.57897" lon="6.91884">
        <ele>2129.94</ele>
        <time>2011-12-26T09:53:48Z</time>
      </trkpt>
      <trkpt lat="45.57893" lon="6.91894">
        <ele>2133.3</ele>
        <time>2011-12-26T09:53:59Z</time>
      </trkpt>
      <trkpt lat="45.57888" lon="6.91902">
        <ele>2136.19</ele>
        <time>2011-12-26T09:54:12Z</time>
      </trkpt>
      <trkpt lat="45.57889" lon="6.91903">
        <ele>2136.67</ele>
        <time>2011-12-26T09:54:14Z</time>
      </trkpt>
      <trkpt lat="45.5789" lon="6.91903">
        <ele>2136.67</ele>
        <time>2011-12-26T09:54:15Z</time>
      </trkpt>
      <trkpt lat="45.57894" lon="6.91911">
        <ele>2140.03</ele>
        <time>2011-12-26T09:54:25Z</time>
      </trkpt>
      <trkpt lat="45.57895" lon="6.91919">
        <ele>2142.44</ele>
        <time>2011-12-26T09:54:36Z</time>
      </trkpt>
      <trkpt lat="45.57895" lon="6.91928">
        <ele>2144.84</ele>
        <time>2011-12-26T09:54:48Z</time>
      </trkpt>
      <trkpt lat="45.57897" lon="6.91933">
        <ele>2148.2</ele>
        <time>2011-12-26T09:54:56Z</time>
      </trkpt>
      <trkpt lat="45.57899" lon="6.91936">
        <ele>2149.65</ele>
        <time>2011-12-26T09:55:04Z</time>
      </trkpt>
      <trkpt lat="45.57902" lon="6.91942">
        <ele>2151.57</ele>
        <time>2011-12-26T09:55:14Z</time>
      </trkpt>
      <trkpt lat="45.57902" lon="6.91947">
        <ele>2154.45</ele>
        <time>2011-12-26T09:55:23Z</time>
      </trkpt>
      <trkpt lat="45.57905" lon="6.91955">
        <ele>2157.34</ele>
        <time>2011-12-26T09:55:34Z</time>
      </trkpt>
      <trkpt lat="45.57902" lon="6.91961">
        <ele>2159.26</ele>
        <time>2011-12-26T09:55:43Z</time>
      </trkpt>
      <trkpt lat="45.57897" lon="6.91971">
        <ele>2162.62</ele>
        <time>2011-12-26T09:55:56Z</time>
      </trkpt>
      <trkpt lat="45.57895" lon="6.91979">
        <ele>2166.47</ele>
        <time>2011-12-26T09:56:08Z</time>
      </trkpt>
      <trkpt lat="45.57895" lon="6.91979">
        <ele>2165.99</ele>
        <time>2011-12-26T09:56:09Z</time>
      </trkpt>
      <trkpt lat="45.57898" lon="6.91986">
        <ele>2169.35</ele>
        <time>2011-12-26T09:56:21Z</time>
      </trkpt>
      <trkpt lat="45.57901" lon="6.91996">
        <ele>2172.24</ele>
        <time>2011-12-26T09:56:34Z</time>
      </trkpt>
      <trkpt lat="45.57897" lon="6.92007">
        <ele>2175.6</ele>
        <time>2011-12-26T09:56:46Z</time>
      </trkpt>
      <trkpt lat="45.57898" lon="6.92011">
        <ele>2177.52</ele>
        <time>2011-12-26T09:57:03Z</time>
      </trkpt>
      <trkpt lat="45.57903" lon="6.92019">
        <ele>2179.93</ele>
        <time>2011-12-26T09:57:15Z</time>
      </trkpt>
      <trkpt lat="45.57903" lon="6.92024">
        <ele>2180.41</ele>
        <time>2011-12-26T09:57:20Z</time>
      </trkpt>
      <trkpt lat="45.57899" lon="6.92032">
        <ele>2183.29</ele>
        <time>2011-12-26T09:57:29Z</time>
      </trkpt>
      <trkpt lat="45.57898" lon="6.92036">
        <ele>2184.25</ele>
        <time>2011-12-26T09:57:33Z</time>
      </trkpt>
      <trkpt lat="45.57901" lon="6.92041">
        <ele>2185.69</ele>
        <time>2011-12-26T09:57:39Z</time>
      </trkpt>
      <trkpt lat="45.57908" lon="6.92049">
        <ele>2187.62</ele>
        <time>2011-12-26T09:57:50Z</time>
      </trkpt>
      <trkpt lat="45.57909" lon="6.92053">
        <ele>2188.58</ele>
        <time>2011-12-26T09:57:53Z</time>
      </trkpt>
      <trkpt lat="45.57908" lon="6.92064">
        <ele>2191.46</ele>
        <time>2011-12-26T09:58:02Z</time>
      </trkpt>
      <trkpt lat="45.5791" lon="6.92067">
        <ele>2191.94</ele>
        <time>2011-12-26T09:58:06Z</time>
      </trkpt>
      <trkpt lat="45.57918" lon="6.92076">
        <ele>2194.35</ele>
        <time>2011-12-26T09:58:18Z</time>
      </trkpt>
      <trkpt lat="45.57918" lon="6.92077">
        <ele>2194.35</ele>
        <time>2011-12-26T09:58:19Z</time>
      </trkpt>
      <trkpt lat="45.57915" lon="6.92093">
        <ele>2198.67</ele>
        <time>2011-12-26T09:58:33Z</time>
      </trkpt>
      <trkpt lat="45.57917" lon="6.92102">
        <ele>2201.56</ele>
        <time>2011-12-26T09:58:45Z</time>
      </trkpt>
      <trkpt lat="45.57921" lon="6.92106">
        <ele>2203</ele>
        <time>2011-12-26T09:58:51Z</time>
      </trkpt>
      <trkpt lat="45.57921" lon="6.92107">
        <ele>2203</ele>
        <time>2011-12-26T09:58:52Z</time>
      </trkpt>
      <trkpt lat="45.57922" lon="6.92117">
        <ele>2206.84</ele>
        <time>2011-12-26T09:59:04Z</time>
      </trkpt>
      <trkpt lat="45.57927" lon="6.92123">
        <ele>2209.73</ele>
        <time>2011-12-26T09:59:14Z</time>
      </trkpt>
      <trkpt lat="45.5793" lon="6.92128">
        <ele>2211.65</ele>
        <time>2011-12-26T09:59:20Z</time>
      </trkpt>
      <trkpt lat="45.57934" lon="6.92141">
        <ele>2215.01</ele>
        <time>2011-12-26T09:59:34Z</time>
      </trkpt>
      <trkpt lat="45.57926" lon="6.92154">
        <ele>2217.9</ele>
        <time>2011-12-26T09:59:47Z</time>
      </trkpt>
      <trkpt lat="45.57919" lon="6.92163">
        <ele>2220.78</ele>
        <time>2011-12-26T10:00:00Z</time>
      </trkpt>
      <trkpt lat="45.57915" lon="6.92169">
        <ele>2223.19</ele>
        <time>2011-12-26T10:00:11Z</time>
      </trkpt>
      <trkpt lat="45.57916" lon="6.92174">
        <ele>2226.55</ele>
        <time>2011-12-26T10:00:20Z</time>
      </trkpt>
      <trkpt lat="45.57913" lon="6.92176">
        <ele>2226.55</ele>
        <time>2011-12-26T10:00:25Z</time>
      </trkpt>
      <trkpt lat="45.57908" lon="6.92179">
        <ele>2229.43</ele>
        <time>2011-12-26T10:00:34Z</time>
      </trkpt>
      <trkpt lat="45.57909" lon="6.92185">
        <ele>2231.36</ele>
        <time>2011-12-26T10:00:42Z</time>
      </trkpt>
      <trkpt lat="45.5791" lon="6.9219">
        <ele>2233.28</ele>
        <time>2011-12-26T10:00:49Z</time>
      </trkpt>
      <trkpt lat="45.57906" lon="6.92193">
        <ele>2233.28</ele>
        <time>2011-12-26T10:00:53Z</time>
      </trkpt>
      <trkpt lat="45.57895" lon="6.92192">
        <ele>2236.16</ele>
        <time>2011-12-26T10:01:06Z</time>
      </trkpt>
      <trkpt lat="45.57892" lon="6.92192">
        <ele>2236.16</ele>
        <time>2011-12-26T10:01:09Z</time>
      </trkpt>
      <trkpt lat="45.57889" lon="6.92194">
        <ele>2237.13</ele>
        <time>2011-12-26T10:01:12Z</time>
      </trkpt>
      <trkpt lat="45.57885" lon="6.92197">
        <ele>2239.05</ele>
        <time>2011-12-26T10:01:18Z</time>
      </trkpt>
      <trkpt lat="45.57886" lon="6.92199">
        <ele>2239.53</ele>
        <time>2011-12-26T10:01:21Z</time>
      </trkpt>
      <trkpt lat="45.57887" lon="6.92207">
        <ele>2243.37</ele>
        <time>2011-12-26T10:01:30Z</time>
      </trkpt>
      <trkpt lat="45.57888" lon="6.92211">
        <ele>2243.85</ele>
        <time>2011-12-26T10:01:34Z</time>
      </trkpt>
      <trkpt lat="45.57888" lon="6.92212">
        <ele>2243.85</ele>
        <time>2011-12-26T10:01:35Z</time>
      </trkpt>
      <trkpt lat="45.57888" lon="6.92215">
        <ele>2245.3</ele>
        <time>2011-12-26T10:01:38Z</time>
      </trkpt>
      <trkpt lat="45.57882" lon="6.92222">
        <ele>2246.26</ele>
        <time>2011-12-26T10:01:48Z</time>
      </trkpt>
      <trkpt lat="45.57879" lon="6.92224">
        <ele>2247.7</ele>
        <time>2011-12-26T10:01:52Z</time>
      </trkpt>
      <trkpt lat="45.57876" lon="6.92226">
        <ele>2249.14</ele>
        <time>2011-12-26T10:01:58Z</time>
      </trkpt>
      <trkpt lat="45.57872" lon="6.92229">
        <ele>2249.62</ele>
        <time>2011-12-26T10:02:03Z</time>
      </trkpt>
      <trkpt lat="45.57864" lon="6.92235">
        <ele>2252.99</ele>
        <time>2011-12-26T10:02:16Z</time>
      </trkpt>
      <trkpt lat="45.57862" lon="6.92236">
        <ele>2254.43</ele>
        <time>2011-12-26T10:02:19Z</time>
      </trkpt>
      <trkpt lat="45.57862" lon="6.92239">
        <ele>2256.35</ele>
        <time>2011-12-26T10:02:31Z</time>
      </trkpt>
      <trkpt lat="45.57863" lon="6.92242">
        <ele>2256.83</ele>
        <time>2011-12-26T10:02:35Z</time>
      </trkpt>
      <trkpt lat="45.57867" lon="6.92253">
        <ele>2261.16</ele>
        <time>2011-12-26T10:02:48Z</time>
      </trkpt>
      <trkpt lat="45.57867" lon="6.92254">
        <ele>2262.12</ele>
        <time>2011-12-26T10:02:49Z</time>
      </trkpt>
      <trkpt lat="45.57859" lon="6.92264">
        <ele>2263.56</ele>
        <time>2011-12-26T10:03:00Z</time>
      </trkpt>
      <trkpt lat="45.57857" lon="6.92266">
        <ele>2264.52</ele>
        <time>2011-12-26T10:03:02Z</time>
      </trkpt>
      <trkpt lat="45.57859" lon="6.92273">
        <ele>2266.93</ele>
        <time>2011-12-26T10:03:11Z</time>
      </trkpt>
      <trkpt lat="45.57861" lon="6.92276">
        <ele>2267.89</ele>
        <time>2011-12-26T10:03:15Z</time>
      </trkpt>
      <trkpt lat="45.57865" lon="6.92279">
        <ele>2268.85</ele>
        <time>2011-12-26T10:03:21Z</time>
      </trkpt>
      <trkpt lat="45.57867" lon="6.9229">
        <ele>2272.21</ele>
        <time>2011-12-26T10:03:33Z</time>
      </trkpt>
      <trkpt lat="45.57869" lon="6.92298">
        <ele>2272.69</ele>
        <time>2011-12-26T10:03:43Z</time>
      </trkpt>
      <trkpt lat="45.57869" lon="6.92299">
        <ele>2273.66</ele>
        <time>2011-12-26T10:03:45Z</time>
      </trkpt>
      <trkpt lat="45.57869" lon="6.92299">
        <ele>2273.17</ele>
        <time>2011-12-26T10:03:46Z</time>
      </trkpt>
      <trkpt lat="45.57871" lon="6.92304">
        <ele>2272.69</ele>
        <time>2011-12-26T10:03:58Z</time>
      </trkpt>
      <trkpt lat="45.57872" lon="6.92303">
        <ele>2274.62</ele>
        <time>2011-12-26T10:04:01Z</time>
      </trkpt>
      <trkpt lat="45.57872" lon="6.92303">
        <ele>2274.62</ele>
        <time>2011-12-26T10:04:03Z</time>
      </trkpt>
      <trkpt lat="45.5787" lon="6.92312">
        <ele>2277.02</ele>
        <time>2011-12-26T10:04:15Z</time>
      </trkpt>
      <trkpt lat="45.57864" lon="6.92321">
        <ele>2279.9</ele>
        <time>2011-12-26T10:04:25Z</time>
      </trkpt>
      <trkpt lat="45.57865" lon="6.92323">
        <ele>2280.87</ele>
        <time>2011-12-26T10:04:29Z</time>
      </trkpt>
      <trkpt lat="45.57872" lon="6.92333">
        <ele>2284.71</ele>
        <time>2011-12-26T10:04:43Z</time>
      </trkpt>
      <trkpt lat="45.57875" lon="6.92339">
        <ele>2284.71</ele>
        <time>2011-12-26T10:04:52Z</time>
      </trkpt>
      <trkpt lat="45.57868" lon="6.9235">
        <ele>2288.08</ele>
        <time>2011-12-26T10:05:04Z</time>
      </trkpt>
      <trkpt lat="45.57864" lon="6.92358">
        <ele>2291.44</ele>
        <time>2011-12-26T10:05:13Z</time>
      </trkpt>
      <trkpt lat="45.57863" lon="6.9236">
        <ele>2290</ele>
        <time>2011-12-26T10:05:16Z</time>
      </trkpt>
      <trkpt lat="45.57862" lon="6.92362">
        <ele>2291.92</ele>
        <time>2011-12-26T10:05:18Z</time>
      </trkpt>
      <trkpt lat="45.57863" lon="6.92365">
        <ele>2294.8</ele>
        <time>2011-12-26T10:05:26Z</time>
      </trkpt>
      <trkpt lat="45.57865" lon="6.92369">
        <ele>2296.73</ele>
        <time>2011-12-26T10:05:37Z</time>
      </trkpt>
      <trkpt lat="45.57865" lon="6.92369">
        <ele>2296.73</ele>
        <time>2011-12-26T10:05:38Z</time>
      </trkpt>
      <trkpt lat="45.57865" lon="6.9237">
        <ele>2297.21</ele>
        <time>2011-12-26T10:05:42Z</time>
      </trkpt>
      <trkpt lat="45.57868" lon="6.92375">
        <ele>2300.57</ele>
        <time>2011-12-26T10:05:52Z</time>
      </trkpt>
      <trkpt lat="45.57869" lon="6.9238">
        <ele>2301.53</ele>
        <time>2011-12-26T10:05:59Z</time>
      </trkpt>
      <trkpt lat="45.57872" lon="6.92388">
        <ele>2302.49</ele>
        <time>2011-12-26T10:06:10Z</time>
      </trkpt>
      <trkpt lat="45.57871" lon="6.92393">
        <ele>2305.38</ele>
        <time>2011-12-26T10:06:45Z</time>
      </trkpt>
      <trkpt lat="45.57871" lon="6.92395">
        <ele>2306.34</ele>
        <time>2011-12-26T10:06:47Z</time>
      </trkpt>
      <trkpt lat="45.57871" lon="6.92397">
        <ele>2307.3</ele>
        <time>2011-12-26T10:06:49Z</time>
      </trkpt>
      <trkpt lat="45.57868" lon="6.92402">
        <ele>2306.34</ele>
        <time>2011-12-26T10:06:57Z</time>
      </trkpt>
      <trkpt lat="45.57857" lon="6.924">
        <ele>2309.22</ele>
        <time>2011-12-26T10:07:08Z</time>
      </trkpt>
      <trkpt lat="45.57851" lon="6.924">
        <ele>2310.19</ele>
        <time>2011-12-26T10:07:14Z</time>
      </trkpt>
      <trkpt lat="45.57847" lon="6.92398">
        <ele>2311.63</ele>
        <time>2011-12-26T10:07:19Z</time>
      </trkpt>
      <trkpt lat="45.57846" lon="6.92398">
        <ele>2310.67</ele>
        <time>2011-12-26T10:07:20Z</time>
      </trkpt>
      <trkpt lat="45.57835" lon="6.92393">
        <ele>2315.47</ele>
        <time>2011-12-26T10:07:34Z</time>
      </trkpt>
      <trkpt lat="45.57833" lon="6.92392">
        <ele>2315.95</ele>
        <time>2011-12-26T10:07:36Z</time>
      </trkpt>
      <trkpt lat="45.57828" lon="6.9239">
        <ele>2317.88</ele>
        <time>2011-12-26T10:07:43Z</time>
      </trkpt>
      <trkpt lat="45.57827" lon="6.92389">
        <ele>2318.36</ele>
        <time>2011-12-26T10:07:45Z</time>
      </trkpt>
      <trkpt lat="45.57823" lon="6.92392">
        <ele>2320.28</ele>
        <time>2011-12-26T10:07:54Z</time>
      </trkpt>
      <trkpt lat="45.57816" lon="6.92388">
        <ele>2322.68</ele>
        <time>2011-12-26T10:08:05Z</time>
      </trkpt>
      <trkpt lat="45.57811" lon="6.92383">
        <ele>2326.53</ele>
        <time>2011-12-26T10:08:16Z</time>
      </trkpt>
      <trkpt lat="45.57807" lon="6.92386">
        <ele>2326.53</ele>
        <time>2011-12-26T10:08:22Z</time>
      </trkpt>
      <trkpt lat="45.57804" lon="6.92384">
        <ele>2327.49</ele>
        <time>2011-12-26T10:08:26Z</time>
      </trkpt>
      <trkpt lat="45.57801" lon="6.92379">
        <ele>2328.45</ele>
        <time>2011-12-26T10:08:31Z</time>
      </trkpt>
      <trkpt lat="45.57794" lon="6.92382">
        <ele>2331.33</ele>
        <time>2011-12-26T10:08:42Z</time>
      </trkpt>
      <trkpt lat="45.5779" lon="6.92381">
        <ele>2332.3</ele>
        <time>2011-12-26T10:08:46Z</time>
      </trkpt>
      <trkpt lat="45.57786" lon="6.92374">
        <ele>2333.74</ele>
        <time>2011-12-26T10:08:53Z</time>
      </trkpt>
      <trkpt lat="45.5778" lon="6.92369">
        <ele>2337.1</ele>
        <time>2011-12-26T10:09:01Z</time>
      </trkpt>
      <trkpt lat="45.57771" lon="6.92363">
        <ele>2339.51</ele>
        <time>2011-12-26T10:09:11Z</time>
      </trkpt>
      <trkpt lat="45.57762" lon="6.92359">
        <ele>2342.39</ele>
        <time>2011-12-26T10:09:20Z</time>
      </trkpt>
      <trkpt lat="45.57759" lon="6.92357">
        <ele>2343.83</ele>
        <time>2011-12-26T10:09:23Z</time>
      </trkpt>
      <trkpt lat="45.57758" lon="6.92357">
        <ele>2343.35</ele>
        <time>2011-12-26T10:09:24Z</time>
      </trkpt>
      <trkpt lat="45.57754" lon="6.92353">
        <ele>2344.31</ele>
        <time>2011-12-26T10:09:28Z</time>
      </trkpt>
      <trkpt lat="45.5774" lon="6.92349">
        <ele>2346.72</ele>
        <time>2011-12-26T10:09:41Z</time>
      </trkpt>
      <trkpt lat="45.57728" lon="6.92351">
        <ele>2350.08</ele>
        <time>2011-12-26T10:09:53Z</time>
      </trkpt>
      <trkpt lat="45.57724" lon="6.92361">
        <ele>2352.48</ele>
        <time>2011-12-26T10:10:04Z</time>
      </trkpt>
      <trkpt lat="45.57723" lon="6.92363">
        <ele>2352.96</ele>
        <time>2011-12-26T10:10:06Z</time>
      </trkpt>
      <trkpt lat="45.57713" lon="6.92363">
        <ele>2355.37</ele>
        <time>2011-12-26T10:10:19Z</time>
      </trkpt>
      <trkpt lat="45.57707" lon="6.92363">
        <ele>2358.73</ele>
        <time>2011-12-26T10:10:28Z</time>
      </trkpt>
      <trkpt lat="45.57707" lon="6.92363">
        <ele>2358.25</ele>
        <time>2011-12-26T10:10:29Z</time>
      </trkpt>
      <trkpt lat="45.57704" lon="6.92372">
        <ele>2361.62</ele>
        <time>2011-12-26T10:10:41Z</time>
      </trkpt>
      <trkpt lat="45.57704" lon="6.92373">
        <ele>2361.62</ele>
        <time>2011-12-26T10:10:42Z</time>
      </trkpt>
      <trkpt lat="45.57695" lon="6.9237">
        <ele>2363.06</ele>
        <time>2011-12-26T10:10:53Z</time>
      </trkpt>
      <trkpt lat="45.57692" lon="6.92372">
        <ele>2366.9</ele>
        <time>2011-12-26T10:11:01Z</time>
      </trkpt>
      <trkpt lat="45.57689" lon="6.92379">
        <ele>2367.86</ele>
        <time>2011-12-26T10:11:11Z</time>
      </trkpt>
      <trkpt lat="45.57685" lon="6.9238">
        <ele>2368.83</ele>
        <time>2011-12-26T10:11:16Z</time>
      </trkpt>
      <trkpt lat="45.57677" lon="6.9238">
        <ele>2371.23</ele>
        <time>2011-12-26T10:11:27Z</time>
      </trkpt>
      <trkpt lat="45.57674" lon="6.92383">
        <ele>2373.63</ele>
        <time>2011-12-26T10:11:33Z</time>
      </trkpt>
      <trkpt lat="45.57673" lon="6.92385">
        <ele>2376.04</ele>
        <time>2011-12-26T10:11:35Z</time>
      </trkpt>
      <trkpt lat="45.57671" lon="6.92388">
        <ele>2376.04</ele>
        <time>2011-12-26T10:11:42Z</time>
      </trkpt>
      <trkpt lat="45.57664" lon="6.92388">
        <ele>2378.44</ele>
        <time>2011-12-26T10:11:53Z</time>
      </trkpt>
      <trkpt lat="45.57661" lon="6.92391">
        <ele>2380.36</ele>
        <time>2011-12-26T10:11:59Z</time>
      </trkpt>
      <trkpt lat="45.57659" lon="6.92395">
        <ele>2382.28</ele>
        <time>2011-12-26T10:12:05Z</time>
      </trkpt>
      <trkpt lat="45.57655" lon="6.92398">
        <ele>2382.28</ele>
        <time>2011-12-26T10:12:12Z</time>
      </trkpt>
      <trkpt lat="45.57648" lon="6.92399">
        <ele>2385.65</ele>
        <time>2011-12-26T10:12:21Z</time>
      </trkpt>
      <trkpt lat="45.57645" lon="6.92399">
        <ele>2386.61</ele>
        <time>2011-12-26T10:12:28Z</time>
      </trkpt>
      <trkpt lat="45.57645" lon="6.92401">
        <ele>2388.05</ele>
        <time>2011-12-26T10:12:33Z</time>
      </trkpt>
      <trkpt lat="45.57648" lon="6.92414">
        <ele>2391.42</ele>
        <time>2011-12-26T10:12:46Z</time>
      </trkpt>
      <trkpt lat="45.57649" lon="6.92414">
        <ele>2391.42</ele>
        <time>2011-12-26T10:12:47Z</time>
      </trkpt>
      <trkpt lat="45.57651" lon="6.92421">
        <ele>2393.34</ele>
        <time>2011-12-26T10:12:55Z</time>
      </trkpt>
      <trkpt lat="45.57647" lon="6.92427">
        <ele>2394.3</ele>
        <time>2011-12-26T10:13:04Z</time>
      </trkpt>
      <trkpt lat="45.57642" lon="6.92433">
        <ele>2397.67</ele>
        <time>2011-12-26T10:13:13Z</time>
      </trkpt>
      <trkpt lat="45.57645" lon="6.9244">
        <ele>2399.59</ele>
        <time>2011-12-26T10:13:23Z</time>
      </trkpt>
      <trkpt lat="45.57648" lon="6.92445">
        <ele>2401.03</ele>
        <time>2011-12-26T10:13:30Z</time>
      </trkpt>
      <trkpt lat="45.57648" lon="6.92447">
        <ele>2402.47</ele>
        <time>2011-12-26T10:13:33Z</time>
      </trkpt>
      <trkpt lat="45.57647" lon="6.92451">
        <ele>2401.99</ele>
        <time>2011-12-26T10:13:38Z</time>
      </trkpt>
      <trkpt lat="45.57643" lon="6.92453">
        <ele>2403.43</ele>
        <time>2011-12-26T10:13:43Z</time>
      </trkpt>
      <trkpt lat="45.57637" lon="6.92457">
        <ele>2406.32</ele>
        <time>2011-12-26T10:13:51Z</time>
      </trkpt>
      <trkpt lat="45.57638" lon="6.92458">
        <ele>2405.84</ele>
        <time>2011-12-26T10:13:52Z</time>
      </trkpt>
      <trkpt lat="45.57641" lon="6.92463">
        <ele>2407.28</ele>
        <time>2011-12-26T10:14:00Z</time>
      </trkpt>
      <trkpt lat="45.5764" lon="6.92469">
        <ele>2411.6</ele>
        <time>2011-12-26T10:14:09Z</time>
      </trkpt>
      <trkpt lat="45.57641" lon="6.92473">
        <ele>2413.05</ele>
        <time>2011-12-26T10:14:14Z</time>
      </trkpt>
      <trkpt lat="45.57642" lon="6.92478">
        <ele>2412.57</ele>
        <time>2011-12-26T10:14:20Z</time>
      </trkpt>
      <trkpt lat="45.5764" lon="6.9248">
        <ele>2413.05</ele>
        <time>2011-12-26T10:14:23Z</time>
      </trkpt>
      <trkpt lat="45.57631" lon="6.92481">
        <ele>2414.97</ele>
        <time>2011-12-26T10:14:32Z</time>
      </trkpt>
      <trkpt lat="45.57621" lon="6.92483">
        <ele>2418.33</ele>
        <time>2011-12-26T10:14:44Z</time>
      </trkpt>
      <trkpt lat="45.5762" lon="6.92482">
        <ele>2418.33</ele>
        <time>2011-12-26T10:14:45Z</time>
      </trkpt>
      <trkpt lat="45.57609" lon="6.92483">
        <ele>2419.78</ele>
        <time>2011-12-26T10:14:57Z</time>
      </trkpt>
      <trkpt lat="45.57604" lon="6.92484">
        <ele>2421.22</ele>
        <time>2011-12-26T10:15:02Z</time>
      </trkpt>
      <trkpt lat="45.57588" lon="6.92486">
        <ele>2421.22</ele>
        <time>2011-12-26T10:15:15Z</time>
      </trkpt>
      <trkpt lat="45.57581" lon="6.92483">
        <ele>2422.18</ele>
        <time>2011-12-26T10:15:21Z</time>
      </trkpt>
      <trkpt lat="45.57572" lon="6.92481">
        <ele>2422.66</ele>
        <time>2011-12-26T10:15:29Z</time>
      </trkpt>
      <trkpt lat="45.57553" lon="6.92484">
        <ele>2422.18</ele>
        <time>2011-12-26T10:15:44Z</time>
      </trkpt>
      <trkpt lat="45.57534" lon="6.92483">
        <ele>2424.58</ele>
        <time>2011-12-26T10:16:00Z</time>
      </trkpt>
      <trkpt lat="45.57523" lon="6.92482">
        <ele>2428.43</ele>
        <time>2011-12-26T10:16:12Z</time>
      </trkpt>
      <trkpt lat="45.57519" lon="6.92481">
        <ele>2428.43</ele>
        <time>2011-12-26T10:16:17Z</time>
      </trkpt>
      <trkpt lat="45.57511" lon="6.9248">
        <ele>2431.31</ele>
        <time>2011-12-26T10:16:27Z</time>
      </trkpt>
      <trkpt lat="45.57503" lon="6.92478">
        <ele>2434.2</ele>
        <time>2011-12-26T10:16:36Z</time>
      </trkpt>
      <trkpt lat="45.57494" lon="6.92478">
        <ele>2436.12</ele>
        <time>2011-12-26T10:16:47Z</time>
      </trkpt>
      <trkpt lat="45.57485" lon="6.92477">
        <ele>2439</ele>
        <time>2011-12-26T10:16:59Z</time>
      </trkpt>
      <trkpt lat="45.57481" lon="6.92474">
        <ele>2439.96</ele>
        <time>2011-12-26T10:17:16Z</time>
      </trkpt>
      <trkpt lat="45.57477" lon="6.92471">
        <ele>2440.92</ele>
        <time>2011-12-26T10:17:20Z</time>
      </trkpt>
      <trkpt lat="45.57472" lon="6.92468">
        <ele>2443.33</ele>
        <time>2011-12-26T10:17:26Z</time>
      </trkpt>
      <trkpt lat="45.57461" lon="6.92466">
        <ele>2445.25</ele>
        <time>2011-12-26T10:17:37Z</time>
      </trkpt>
      <trkpt lat="45.57454" lon="6.92467">
        <ele>2446.69</ele>
        <time>2011-12-26T10:17:44Z</time>
      </trkpt>
      <trkpt lat="45.57441" lon="6.92466">
        <ele>2449.58</ele>
        <time>2011-12-26T10:17:58Z</time>
      </trkpt>
      <trkpt lat="45.5744" lon="6.92466">
        <ele>2450.06</ele>
        <time>2011-12-26T10:18:00Z</time>
      </trkpt>
      <trkpt lat="45.57437" lon="6.9247">
        <ele>2451.02</ele>
        <time>2011-12-26T10:18:12Z</time>
      </trkpt>
      <trkpt lat="45.57435" lon="6.92471">
        <ele>2451.02</ele>
        <time>2011-12-26T10:18:14Z</time>
      </trkpt>
      <trkpt lat="45.57433" lon="6.92472">
        <ele>2451.98</ele>
        <time>2011-12-26T10:18:16Z</time>
      </trkpt>
      <trkpt lat="45.57431" lon="6.92472">
        <ele>2452.46</ele>
        <time>2011-12-26T10:18:40Z</time>
      </trkpt>
      <trkpt lat="45.57431" lon="6.92472">
        <ele>2453.42</ele>
        <time>2011-12-26T10:18:56Z</time>
      </trkpt>
      <trkpt lat="45.57422" lon="6.92475">
        <ele>2455.82</ele>
        <time>2011-12-26T10:19:06Z</time>
      </trkpt>
      <trkpt lat="45.57418" lon="6.92476">
        <ele>2457.27</ele>
        <time>2011-12-26T10:19:10Z</time>
      </trkpt>
      <trkpt lat="45.57415" lon="6.92483">
        <ele>2458.23</ele>
        <time>2011-12-26T10:19:22Z</time>
      </trkpt>
      <trkpt lat="45.57416" lon="6.92482">
        <ele>2459.19</ele>
        <time>2011-12-26T10:19:28Z</time>
      </trkpt>
      <trkpt lat="45.57415" lon="6.92483">
        <ele>2460.15</ele>
        <time>2011-12-26T10:19:31Z</time>
      </trkpt>
      <trkpt lat="45.57407" lon="6.92484">
        <ele>2463.04</ele>
        <time>2011-12-26T10:19:41Z</time>
      </trkpt>
      <trkpt lat="45.57406" lon="6.92486">
        <ele>2464</ele>
        <time>2011-12-26T10:19:43Z</time>
      </trkpt>
      <trkpt lat="45.57404" lon="6.92493">
        <ele>2466.88</ele>
        <time>2011-12-26T10:19:50Z</time>
      </trkpt>
      <trkpt lat="45.57396" lon="6.92491">
        <ele>2467.36</ele>
        <time>2011-12-26T10:20:00Z</time>
      </trkpt>
      <trkpt lat="45.57391" lon="6.92491">
        <ele>2470.24</ele>
        <time>2011-12-26T10:20:06Z</time>
      </trkpt>
      <trkpt lat="45.57388" lon="6.925">
        <ele>2471.69</ele>
        <time>2011-12-26T10:20:14Z</time>
      </trkpt>
      <trkpt lat="45.57387" lon="6.92501">
        <ele>2471.21</ele>
        <time>2011-12-26T10:20:15Z</time>
      </trkpt>
      <trkpt lat="45.57378" lon="6.92493">
        <ele>2475.05</ele>
        <time>2011-12-26T10:20:28Z</time>
      </trkpt>
      <trkpt lat="45.57374" lon="6.92494">
        <ele>2476.97</ele>
        <time>2011-12-26T10:20:33Z</time>
      </trkpt>
      <trkpt lat="45.57369" lon="6.92501">
        <ele>2478.42</ele>
        <time>2011-12-26T10:20:42Z</time>
      </trkpt>
      <trkpt lat="45.57364" lon="6.925">
        <ele>2479.38</ele>
        <time>2011-12-26T10:20:48Z</time>
      </trkpt>
      <trkpt lat="45.57359" lon="6.92493">
        <ele>2482.26</ele>
        <time>2011-12-26T10:20:57Z</time>
      </trkpt>
      <trkpt lat="45.57351" lon="6.92498">
        <ele>2485.63</ele>
        <time>2011-12-26T10:21:09Z</time>
      </trkpt>
      <trkpt lat="45.57347" lon="6.92497">
        <ele>2486.59</ele>
        <time>2011-12-26T10:21:15Z</time>
      </trkpt>
      <trkpt lat="45.5734" lon="6.92492">
        <ele>2489.47</ele>
        <time>2011-12-26T10:21:25Z</time>
      </trkpt>
      <trkpt lat="45.57334" lon="6.92491">
        <ele>2492.84</ele>
        <time>2011-12-26T10:21:37Z</time>
      </trkpt>
      <trkpt lat="45.57333" lon="6.92492">
        <ele>2492.84</ele>
        <time>2011-12-26T10:21:38Z</time>
      </trkpt>
      <trkpt lat="45.57325" lon="6.92491">
        <ele>2494.76</ele>
        <time>2011-12-26T10:21:49Z</time>
      </trkpt>
      <trkpt lat="45.5732" lon="6.92479">
        <ele>2496.68</ele>
        <time>2011-12-26T10:22:00Z</time>
      </trkpt>
      <trkpt lat="45.57317" lon="6.92476">
        <ele>2501.01</ele>
        <time>2011-12-26T10:22:06Z</time>
      </trkpt>
      <trkpt lat="45.57317" lon="6.92476">
        <ele>2499.08</ele>
        <time>2011-12-26T10:22:07Z</time>
      </trkpt>
      <trkpt lat="45.57315" lon="6.92476">
        <ele>2500.05</ele>
        <time>2011-12-26T10:22:10Z</time>
      </trkpt>
      <trkpt lat="45.57313" lon="6.92476">
        <ele>2502.45</ele>
        <time>2011-12-26T10:22:13Z</time>
      </trkpt>
      <trkpt lat="45.57309" lon="6.92477">
        <ele>2502.45</ele>
        <time>2011-12-26T10:22:17Z</time>
      </trkpt>
      <trkpt lat="45.57303" lon="6.92467">
        <ele>2505.33</ele>
        <time>2011-12-26T10:22:28Z</time>
      </trkpt>
      <trkpt lat="45.57303" lon="6.92465">
        <ele>2505.33</ele>
        <time>2011-12-26T10:22:30Z</time>
      </trkpt>
      <trkpt lat="45.573" lon="6.92457">
        <ele>2506.77</ele>
        <time>2011-12-26T10:22:37Z</time>
      </trkpt>
      <trkpt lat="45.57297" lon="6.92455">
        <ele>2508.7</ele>
        <time>2011-12-26T10:22:41Z</time>
      </trkpt>
      <trkpt lat="45.5729" lon="6.92457">
        <ele>2509.66</ele>
        <time>2011-12-26T10:22:48Z</time>
      </trkpt>
      <trkpt lat="45.57288" lon="6.92455">
        <ele>2510.14</ele>
        <time>2011-12-26T10:22:51Z</time>
      </trkpt>
      <trkpt lat="45.57287" lon="6.92451">
        <ele>2510.62</ele>
        <time>2011-12-26T10:22:54Z</time>
      </trkpt>
      <trkpt lat="45.57282" lon="6.92435">
        <ele>2514.47</ele>
        <time>2011-12-26T10:23:07Z</time>
      </trkpt>
      <trkpt lat="45.57278" lon="6.92431">
        <ele>2514.95</ele>
        <time>2011-12-26T10:23:13Z</time>
      </trkpt>
      <trkpt lat="45.57272" lon="6.92424">
        <ele>2518.31</ele>
        <time>2011-12-26T10:23:23Z</time>
      </trkpt>
      <trkpt lat="45.5727" lon="6.92422">
        <ele>2518.31</ele>
        <time>2011-12-26T10:23:27Z</time>
      </trkpt>
      <trkpt lat="45.57263" lon="6.92421">
        <ele>2522.16</ele>
        <time>2011-12-26T10:23:34Z</time>
      </trkpt>
      <trkpt lat="45.57258" lon="6.92405">
        <ele>2524.56</ele>
        <time>2011-12-26T10:23:47Z</time>
      </trkpt>
      <trkpt lat="45.57249" lon="6.92397">
        <ele>2527.44</ele>
        <time>2011-12-26T10:23:58Z</time>
      </trkpt>
      <trkpt lat="45.57246" lon="6.92391">
        <ele>2526.96</ele>
        <time>2011-12-26T10:24:03Z</time>
      </trkpt>
      <trkpt lat="45.57244" lon="6.92387">
        <ele>2528.4</ele>
        <time>2011-12-26T10:24:06Z</time>
      </trkpt>
      <trkpt lat="45.57242" lon="6.92386">
        <ele>2529.37</ele>
        <time>2011-12-26T10:24:08Z</time>
      </trkpt>
      <trkpt lat="45.57229" lon="6.92387">
        <ele>2531.77</ele>
        <time>2011-12-26T10:24:21Z</time>
      </trkpt>
      <trkpt lat="45.57223" lon="6.92387">
        <ele>2533.69</ele>
        <time>2011-12-26T10:24:28Z</time>
      </trkpt>
      <trkpt lat="45.57214" lon="6.92389">
        <ele>2536.1</ele>
        <time>2011-12-26T10:24:37Z</time>
      </trkpt>
      <trkpt lat="45.57206" lon="6.92395">
        <ele>2537.54</ele>
        <time>2011-12-26T10:24:46Z</time>
      </trkpt>
      <trkpt lat="45.572" lon="6.92412">
        <ele>2539.94</ele>
        <time>2011-12-26T10:25:00Z</time>
      </trkpt>
      <trkpt lat="45.57199" lon="6.92429">
        <ele>2543.31</ele>
        <time>2011-12-26T10:25:15Z</time>
      </trkpt>
      <trkpt lat="45.57199" lon="6.92433">
        <ele>2544.75</ele>
        <time>2011-12-26T10:25:19Z</time>
      </trkpt>
      <trkpt lat="45.57207" lon="6.92438">
        <ele>2547.63</ele>
        <time>2011-12-26T10:25:30Z</time>
      </trkpt>
      <trkpt lat="45.57212" lon="6.92444">
        <ele>2547.63</ele>
        <time>2011-12-26T10:25:39Z</time>
      </trkpt>
      <trkpt lat="45.57217" lon="6.92448">
        <ele>2550.51</ele>
        <time>2011-12-26T10:26:04Z</time>
      </trkpt>
      <trkpt lat="45.57221" lon="6.92452">
        <ele>2552.44</ele>
        <time>2011-12-26T10:26:09Z</time>
      </trkpt>
      <trkpt lat="45.57223" lon="6.92455">
        <ele>2552.44</ele>
        <time>2011-12-26T10:26:12Z</time>
      </trkpt>
      <trkpt lat="45.57223" lon="6.9246">
        <ele>2553.4</ele>
        <time>2011-12-26T10:26:16Z</time>
      </trkpt>
      <trkpt lat="45.57217" lon="6.92476">
        <ele>2556.76</ele>
        <time>2011-12-26T10:26:28Z</time>
      </trkpt>
      <trkpt lat="45.57213" lon="6.92491">
        <ele>2558.69</ele>
        <time>2011-12-26T10:26:43Z</time>
      </trkpt>
      <trkpt lat="45.57213" lon="6.92491">
        <ele>2560.13</ele>
        <time>2011-12-26T10:26:44Z</time>
      </trkpt>
      <trkpt lat="45.57217" lon="6.92493">
        <ele>2561.09</ele>
        <time>2011-12-26T10:26:50Z</time>
      </trkpt>
      <trkpt lat="45.57223" lon="6.92498">
        <ele>2563.49</ele>
        <time>2011-12-26T10:26:59Z</time>
      </trkpt>
      <trkpt lat="45.57225" lon="6.92501">
        <ele>2564.45</ele>
        <time>2011-12-26T10:27:02Z</time>
      </trkpt>
      <trkpt lat="45.57224" lon="6.9251">
        <ele>2565.42</ele>
        <time>2011-12-26T10:27:10Z</time>
      </trkpt>
      <trkpt lat="45.57222" lon="6.92515">
        <ele>2566.38</ele>
        <time>2011-12-26T10:27:14Z</time>
      </trkpt>
      <trkpt lat="45.5722" lon="6.92522">
        <ele>2567.82</ele>
        <time>2011-12-26T10:27:21Z</time>
      </trkpt>
      <trkpt lat="45.57224" lon="6.92529">
        <ele>2570.22</ele>
        <time>2011-12-26T10:27:30Z</time>
      </trkpt>
      <trkpt lat="45.57226" lon="6.92536">
        <ele>2572.14</ele>
        <time>2011-12-26T10:27:38Z</time>
      </trkpt>
      <trkpt lat="45.57219" lon="6.92551">
        <ele>2575.51</ele>
        <time>2011-12-26T10:27:52Z</time>
      </trkpt>
      <trkpt lat="45.57219" lon="6.92553">
        <ele>2575.51</ele>
        <time>2011-12-26T10:27:54Z</time>
      </trkpt>
      <trkpt lat="45.5722" lon="6.9256">
        <ele>2577.43</ele>
        <time>2011-12-26T10:28:03Z</time>
      </trkpt>
      <trkpt lat="45.5722" lon="6.92561">
        <ele>2578.39</ele>
        <time>2011-12-26T10:28:05Z</time>
      </trkpt>
      <trkpt lat="45.57222" lon="6.92569">
        <ele>2579.35</ele>
        <time>2011-12-26T10:28:14Z</time>
      </trkpt>
      <trkpt lat="45.57222" lon="6.92572">
        <ele>2580.8</ele>
        <time>2011-12-26T10:28:17Z</time>
      </trkpt>
      <trkpt lat="45.57217" lon="6.92584">
        <ele>2583.2</ele>
        <time>2011-12-26T10:28:31Z</time>
      </trkpt>
      <trkpt lat="45.57218" lon="6.92589">
        <ele>2585.6</ele>
        <time>2011-12-26T10:28:38Z</time>
      </trkpt>
      <trkpt lat="45.57219" lon="6.92592">
        <ele>2587.04</ele>
        <time>2011-12-26T10:28:41Z</time>
      </trkpt>
      <trkpt lat="45.57213" lon="6.92601">
        <ele>2588.49</ele>
        <time>2011-12-26T10:28:53Z</time>
      </trkpt>
      <trkpt lat="45.5721" lon="6.92612">
        <ele>2590.41</ele>
        <time>2011-12-26T10:29:21Z</time>
      </trkpt>
      <trkpt lat="45.57211" lon="6.92614">
        <ele>2590.41</ele>
        <time>2011-12-26T10:29:23Z</time>
      </trkpt>
      <trkpt lat="45.57213" lon="6.92618">
        <ele>2591.85</ele>
        <time>2011-12-26T10:29:26Z</time>
      </trkpt>
      <trkpt lat="45.57207" lon="6.92629">
        <ele>2595.22</ele>
        <time>2011-12-26T10:29:39Z</time>
      </trkpt>
      <trkpt lat="45.57207" lon="6.92633">
        <ele>2596.18</ele>
        <time>2011-12-26T10:29:43Z</time>
      </trkpt>
      <trkpt lat="45.5721" lon="6.92638">
        <ele>2596.66</ele>
        <time>2011-12-26T10:29:47Z</time>
      </trkpt>
      <trkpt lat="45.57212" lon="6.92642">
        <ele>2598.1</ele>
        <time>2011-12-26T10:29:50Z</time>
      </trkpt>
      <trkpt lat="45.57215" lon="6.92658">
        <ele>2601.46</ele>
        <time>2011-12-26T10:30:01Z</time>
      </trkpt>
      <trkpt lat="45.57218" lon="6.92663">
        <ele>2600.98</ele>
        <time>2011-12-26T10:30:04Z</time>
      </trkpt>
      <trkpt lat="45.57235" lon="6.92678">
        <ele>2604.35</ele>
        <time>2011-12-26T10:30:19Z</time>
      </trkpt>
      <trkpt lat="45.57255" lon="6.92691">
        <ele>2606.75</ele>
        <time>2011-12-26T10:30:35Z</time>
      </trkpt>
      <trkpt lat="45.57273" lon="6.92708">
        <ele>2609.64</ele>
        <time>2011-12-26T10:30:50Z</time>
      </trkpt>
      <trkpt lat="45.57284" lon="6.92717">
        <ele>2613</ele>
        <time>2011-12-26T10:31:02Z</time>
      </trkpt>
    </trkseg>
  </trk>
</gpx>